<?xml version="1.0" encoding="UTF-8" standalone="no" ?>
<gpx xmlns="http://www.topografix.com/GPX/1/1" xmlns:xsi="http://www.w3.org/2001/XMLSchema-instance" xsi:schemaLocation="http://www.topografix.com/GPX/1/1 http://www.topografix.com/GPX/1/1/gpx.xsd" version="1.1" creator="VisuGPX - https://www.visugpx.com">
  <metadata>
    <name>Lanvollon</name>
    <desc><![CDATA[Veline]]></desc>
  </metadata>
  <wpt lat="48.61383" lon="-2.96894">
    <ele>151</ele>
    <name><![CDATA[Pause à 24/06 à 09:16]]></name>
    <desc><![CDATA[Pause de 2min 14s]]></desc>
  </wpt>
  <wpt lat="48.61451" lon="-2.96448">
    <ele>156</ele>
    <name><![CDATA[Pause à 24/06 à 09:25]]></name>
    <desc><![CDATA[Pause de 2min 33s]]></desc>
  </wpt>
  <wpt lat="48.61489" lon="-2.96402">
    <ele>151</ele>
    <name><![CDATA[Pause à 24/06 à 09:28]]></name>
    <desc><![CDATA[Pause de 5min 13s]]></desc>
  </wpt>
  <wpt lat="48.61525" lon="-2.96356">
    <ele>164</ele>
    <name><![CDATA[Pause à 24/06 à 09:33]]></name>
    <desc><![CDATA[Pause de 2min 5s]]></desc>
  </wpt>
  <wpt lat="48.61755" lon="-2.95944">
    <ele>155</ele>
    <name><![CDATA[Pause à 24/06 à 09:42]]></name>
    <desc><![CDATA[Pause de 2min 25s]]></desc>
  </wpt>
  <wpt lat="48.61975" lon="-2.96079">
    <ele>166</ele>
    <name><![CDATA[Pause à 24/06 à 09:49]]></name>
    <desc><![CDATA[Pause de 2min 24s]]></desc>
  </wpt>
  <wpt lat="48.61006" lon="-2.96129">
    <ele>166</ele>
    <name><![CDATA[Pause à 24/06 à 10:36]]></name>
    <desc><![CDATA[Pause de 2min 5s]]></desc>
  </wpt>
  <wpt lat="48.60795" lon="-2.96509">
    <ele>153</ele>
    <name><![CDATA[Pause à 24/06 à 10:44]]></name>
    <desc><![CDATA[Pause de 2min 5s]]></desc>
  </wpt>
  <trk>
    <name><![CDATA[Lanvollon]]></name>
    <desc><![CDATA[Veline]]></desc>
    <trkseg>
      <trkpt lat="48.61383" lon="-2.96894">
        <ele>151</ele>
        <time>2020-06-24T07:14:47Z</time>
      </trkpt>
      <trkpt lat="48.6138" lon="-2.96889">
        <ele>154</ele>
        <time>2020-06-24T07:15:00Z</time>
      </trkpt>
      <trkpt lat="48.61383" lon="-2.96894">
        <ele>155</ele>
        <time>2020-06-24T07:15:12Z</time>
      </trkpt>
      <trkpt lat="48.61379" lon="-2.96891">
        <ele>152</ele>
        <time>2020-06-24T07:15:17Z</time>
      </trkpt>
      <trkpt lat="48.61377" lon="-2.96887">
        <ele>147</ele>
        <time>2020-06-24T07:15:44Z</time>
      </trkpt>
      <trkpt lat="48.61377" lon="-2.96888">
        <ele>146</ele>
        <time>2020-06-24T07:15:46Z</time>
      </trkpt>
      <trkpt lat="48.61377" lon="-2.9689">
        <ele>146</ele>
        <time>2020-06-24T07:16:14Z</time>
      </trkpt>
      <trkpt lat="48.61377" lon="-2.96891">
        <ele>146</ele>
        <time>2020-06-24T07:16:16Z</time>
      </trkpt>
      <trkpt lat="48.61371" lon="-2.96892">
        <ele>144</ele>
        <time>2020-06-24T07:16:24Z</time>
      </trkpt>
      <trkpt lat="48.61367" lon="-2.96894">
        <ele>146</ele>
        <time>2020-06-24T07:16:27Z</time>
      </trkpt>
      <trkpt lat="48.61363" lon="-2.96898">
        <ele>146</ele>
        <time>2020-06-24T07:16:31Z</time>
      </trkpt>
      <trkpt lat="48.61359" lon="-2.96902">
        <ele>145</ele>
        <time>2020-06-24T07:16:35Z</time>
      </trkpt>
      <trkpt lat="48.61354" lon="-2.96908">
        <ele>147</ele>
        <time>2020-06-24T07:16:39Z</time>
      </trkpt>
      <trkpt lat="48.61335" lon="-2.96898">
        <ele>144</ele>
        <time>2020-06-24T07:17:01Z</time>
      </trkpt>
      <trkpt lat="48.6133" lon="-2.96896">
        <ele>143</ele>
        <time>2020-06-24T07:17:05Z</time>
      </trkpt>
      <trkpt lat="48.61325" lon="-2.96894">
        <ele>143</ele>
        <time>2020-06-24T07:17:09Z</time>
      </trkpt>
      <trkpt lat="48.61319" lon="-2.96894">
        <ele>143</ele>
        <time>2020-06-24T07:17:13Z</time>
      </trkpt>
      <trkpt lat="48.61314" lon="-2.96894">
        <ele>143</ele>
        <time>2020-06-24T07:17:18Z</time>
      </trkpt>
      <trkpt lat="48.6131" lon="-2.96894">
        <ele>143</ele>
        <time>2020-06-24T07:17:22Z</time>
      </trkpt>
      <trkpt lat="48.61304" lon="-2.96892">
        <ele>143</ele>
        <time>2020-06-24T07:17:28Z</time>
      </trkpt>
      <trkpt lat="48.61298" lon="-2.9689">
        <ele>144</ele>
        <time>2020-06-24T07:17:32Z</time>
      </trkpt>
      <trkpt lat="48.61294" lon="-2.96889">
        <ele>144</ele>
        <time>2020-06-24T07:17:37Z</time>
      </trkpt>
      <trkpt lat="48.61288" lon="-2.96886">
        <ele>143</ele>
        <time>2020-06-24T07:17:42Z</time>
      </trkpt>
      <trkpt lat="48.61283" lon="-2.96883">
        <ele>143</ele>
        <time>2020-06-24T07:17:46Z</time>
      </trkpt>
      <trkpt lat="48.61279" lon="-2.9688">
        <ele>144</ele>
        <time>2020-06-24T07:17:49Z</time>
      </trkpt>
      <trkpt lat="48.61273" lon="-2.96877">
        <ele>144</ele>
        <time>2020-06-24T07:17:54Z</time>
      </trkpt>
      <trkpt lat="48.61269" lon="-2.96874">
        <ele>145</ele>
        <time>2020-06-24T07:17:58Z</time>
      </trkpt>
      <trkpt lat="48.61264" lon="-2.96869">
        <ele>146</ele>
        <time>2020-06-24T07:18:02Z</time>
      </trkpt>
      <trkpt lat="48.6126" lon="-2.96866">
        <ele>147</ele>
        <time>2020-06-24T07:18:05Z</time>
      </trkpt>
      <trkpt lat="48.61255" lon="-2.96863">
        <ele>147</ele>
        <time>2020-06-24T07:18:08Z</time>
      </trkpt>
      <trkpt lat="48.6125" lon="-2.9686">
        <ele>147</ele>
        <time>2020-06-24T07:18:11Z</time>
      </trkpt>
      <trkpt lat="48.61245" lon="-2.96856">
        <ele>148</ele>
        <time>2020-06-24T07:18:17Z</time>
      </trkpt>
      <trkpt lat="48.61241" lon="-2.96851">
        <ele>148</ele>
        <time>2020-06-24T07:18:20Z</time>
      </trkpt>
      <trkpt lat="48.61237" lon="-2.96848">
        <ele>148</ele>
        <time>2020-06-24T07:18:23Z</time>
      </trkpt>
      <trkpt lat="48.61232" lon="-2.96847">
        <ele>143</ele>
        <time>2020-06-24T07:18:28Z</time>
      </trkpt>
      <trkpt lat="48.61227" lon="-2.96845">
        <ele>144</ele>
        <time>2020-06-24T07:18:33Z</time>
      </trkpt>
      <trkpt lat="48.61223" lon="-2.96841">
        <ele>143</ele>
        <time>2020-06-24T07:18:36Z</time>
      </trkpt>
      <trkpt lat="48.61218" lon="-2.96839">
        <ele>142</ele>
        <time>2020-06-24T07:18:40Z</time>
      </trkpt>
      <trkpt lat="48.61213" lon="-2.96836">
        <ele>141</ele>
        <time>2020-06-24T07:18:42Z</time>
      </trkpt>
      <trkpt lat="48.61208" lon="-2.96836">
        <ele>140</ele>
        <time>2020-06-24T07:18:50Z</time>
      </trkpt>
      <trkpt lat="48.61206" lon="-2.96827">
        <ele>143</ele>
        <time>2020-06-24T07:18:53Z</time>
      </trkpt>
      <trkpt lat="48.61204" lon="-2.9682">
        <ele>144</ele>
        <time>2020-06-24T07:18:56Z</time>
      </trkpt>
      <trkpt lat="48.61203" lon="-2.96811">
        <ele>144</ele>
        <time>2020-06-24T07:19:02Z</time>
      </trkpt>
      <trkpt lat="48.61205" lon="-2.96805">
        <ele>146</ele>
        <time>2020-06-24T07:19:08Z</time>
      </trkpt>
      <trkpt lat="48.61208" lon="-2.96798">
        <ele>149</ele>
        <time>2020-06-24T07:19:11Z</time>
      </trkpt>
      <trkpt lat="48.61211" lon="-2.96792">
        <ele>148</ele>
        <time>2020-06-24T07:19:15Z</time>
      </trkpt>
      <trkpt lat="48.61215" lon="-2.96787">
        <ele>150</ele>
        <time>2020-06-24T07:19:18Z</time>
      </trkpt>
      <trkpt lat="48.61219" lon="-2.96782">
        <ele>152</ele>
        <time>2020-06-24T07:19:22Z</time>
      </trkpt>
      <trkpt lat="48.61222" lon="-2.96776">
        <ele>155</ele>
        <time>2020-06-24T07:19:27Z</time>
      </trkpt>
      <trkpt lat="48.61225" lon="-2.9677">
        <ele>156</ele>
        <time>2020-06-24T07:19:32Z</time>
      </trkpt>
      <trkpt lat="48.61229" lon="-2.96765">
        <ele>157</ele>
        <time>2020-06-24T07:19:35Z</time>
      </trkpt>
      <trkpt lat="48.61232" lon="-2.9676">
        <ele>157</ele>
        <time>2020-06-24T07:19:38Z</time>
      </trkpt>
      <trkpt lat="48.61237" lon="-2.96756">
        <ele>157</ele>
        <time>2020-06-24T07:19:42Z</time>
      </trkpt>
      <trkpt lat="48.6124" lon="-2.96751">
        <ele>155</ele>
        <time>2020-06-24T07:19:45Z</time>
      </trkpt>
      <trkpt lat="48.61245" lon="-2.96746">
        <ele>155</ele>
        <time>2020-06-24T07:19:49Z</time>
      </trkpt>
      <trkpt lat="48.6125" lon="-2.9674">
        <ele>152</ele>
        <time>2020-06-24T07:19:53Z</time>
      </trkpt>
      <trkpt lat="48.61254" lon="-2.96735">
        <ele>152</ele>
        <time>2020-06-24T07:19:58Z</time>
      </trkpt>
      <trkpt lat="48.61259" lon="-2.9673">
        <ele>152</ele>
        <time>2020-06-24T07:20:02Z</time>
      </trkpt>
      <trkpt lat="48.61263" lon="-2.96726">
        <ele>154</ele>
        <time>2020-06-24T07:20:05Z</time>
      </trkpt>
      <trkpt lat="48.61268" lon="-2.96721">
        <ele>157</ele>
        <time>2020-06-24T07:20:08Z</time>
      </trkpt>
      <trkpt lat="48.61269" lon="-2.96713">
        <ele>155</ele>
        <time>2020-06-24T07:20:14Z</time>
      </trkpt>
      <trkpt lat="48.61273" lon="-2.96709">
        <ele>155</ele>
        <time>2020-06-24T07:20:17Z</time>
      </trkpt>
      <trkpt lat="48.61278" lon="-2.96704">
        <ele>156</ele>
        <time>2020-06-24T07:20:21Z</time>
      </trkpt>
      <trkpt lat="48.61283" lon="-2.96699">
        <ele>157</ele>
        <time>2020-06-24T07:20:24Z</time>
      </trkpt>
      <trkpt lat="48.61287" lon="-2.96694">
        <ele>155</ele>
        <time>2020-06-24T07:20:28Z</time>
      </trkpt>
      <trkpt lat="48.6129" lon="-2.96688">
        <ele>155</ele>
        <time>2020-06-24T07:20:32Z</time>
      </trkpt>
      <trkpt lat="48.61293" lon="-2.9668">
        <ele>155</ele>
        <time>2020-06-24T07:20:36Z</time>
      </trkpt>
      <trkpt lat="48.61297" lon="-2.96673">
        <ele>155</ele>
        <time>2020-06-24T07:20:39Z</time>
      </trkpt>
      <trkpt lat="48.613" lon="-2.96667">
        <ele>154</ele>
        <time>2020-06-24T07:20:44Z</time>
      </trkpt>
      <trkpt lat="48.61303" lon="-2.96662">
        <ele>154</ele>
        <time>2020-06-24T07:20:47Z</time>
      </trkpt>
      <trkpt lat="48.61306" lon="-2.96655">
        <ele>155</ele>
        <time>2020-06-24T07:20:51Z</time>
      </trkpt>
      <trkpt lat="48.61309" lon="-2.96649">
        <ele>154</ele>
        <time>2020-06-24T07:20:54Z</time>
      </trkpt>
      <trkpt lat="48.61313" lon="-2.96643">
        <ele>154</ele>
        <time>2020-06-24T07:20:59Z</time>
      </trkpt>
      <trkpt lat="48.61316" lon="-2.96636">
        <ele>154</ele>
        <time>2020-06-24T07:21:03Z</time>
      </trkpt>
      <trkpt lat="48.61318" lon="-2.96629">
        <ele>154</ele>
        <time>2020-06-24T07:21:06Z</time>
      </trkpt>
      <trkpt lat="48.61321" lon="-2.96622">
        <ele>152</ele>
        <time>2020-06-24T07:21:11Z</time>
      </trkpt>
      <trkpt lat="48.61324" lon="-2.96616">
        <ele>152</ele>
        <time>2020-06-24T07:21:16Z</time>
      </trkpt>
      <trkpt lat="48.61328" lon="-2.96609">
        <ele>153</ele>
        <time>2020-06-24T07:21:20Z</time>
      </trkpt>
      <trkpt lat="48.61331" lon="-2.96603">
        <ele>152</ele>
        <time>2020-06-24T07:21:24Z</time>
      </trkpt>
      <trkpt lat="48.61334" lon="-2.96598">
        <ele>151</ele>
        <time>2020-06-24T07:21:28Z</time>
      </trkpt>
      <trkpt lat="48.61338" lon="-2.96593">
        <ele>151</ele>
        <time>2020-06-24T07:21:31Z</time>
      </trkpt>
      <trkpt lat="48.61342" lon="-2.96586">
        <ele>153</ele>
        <time>2020-06-24T07:21:35Z</time>
      </trkpt>
      <trkpt lat="48.61347" lon="-2.9658">
        <ele>152</ele>
        <time>2020-06-24T07:21:38Z</time>
      </trkpt>
      <trkpt lat="48.61352" lon="-2.96577">
        <ele>154</ele>
        <time>2020-06-24T07:21:43Z</time>
      </trkpt>
      <trkpt lat="48.61357" lon="-2.96575">
        <ele>155</ele>
        <time>2020-06-24T07:21:46Z</time>
      </trkpt>
      <trkpt lat="48.61362" lon="-2.96569">
        <ele>154</ele>
        <time>2020-06-24T07:21:50Z</time>
      </trkpt>
      <trkpt lat="48.61363" lon="-2.96562">
        <ele>151</ele>
        <time>2020-06-24T07:21:53Z</time>
      </trkpt>
      <trkpt lat="48.61366" lon="-2.96555">
        <ele>155</ele>
        <time>2020-06-24T07:22:13Z</time>
      </trkpt>
      <trkpt lat="48.61371" lon="-2.96549">
        <ele>157</ele>
        <time>2020-06-24T07:22:16Z</time>
      </trkpt>
      <trkpt lat="48.61375" lon="-2.96544">
        <ele>156</ele>
        <time>2020-06-24T07:22:19Z</time>
      </trkpt>
      <trkpt lat="48.61379" lon="-2.9654">
        <ele>155</ele>
        <time>2020-06-24T07:22:24Z</time>
      </trkpt>
      <trkpt lat="48.61383" lon="-2.96535">
        <ele>154</ele>
        <time>2020-06-24T07:22:27Z</time>
      </trkpt>
      <trkpt lat="48.61387" lon="-2.96532">
        <ele>153</ele>
        <time>2020-06-24T07:22:30Z</time>
      </trkpt>
      <trkpt lat="48.61391" lon="-2.96525">
        <ele>155</ele>
        <time>2020-06-24T07:22:34Z</time>
      </trkpt>
      <trkpt lat="48.61395" lon="-2.96521">
        <ele>156</ele>
        <time>2020-06-24T07:22:36Z</time>
      </trkpt>
      <trkpt lat="48.61399" lon="-2.96517">
        <ele>154</ele>
        <time>2020-06-24T07:22:40Z</time>
      </trkpt>
      <trkpt lat="48.61403" lon="-2.96511">
        <ele>156</ele>
        <time>2020-06-24T07:22:46Z</time>
      </trkpt>
      <trkpt lat="48.61407" lon="-2.96507">
        <ele>153</ele>
        <time>2020-06-24T07:22:49Z</time>
      </trkpt>
      <trkpt lat="48.61413" lon="-2.96504">
        <ele>154</ele>
        <time>2020-06-24T07:22:53Z</time>
      </trkpt>
      <trkpt lat="48.61417" lon="-2.965">
        <ele>153</ele>
        <time>2020-06-24T07:23:01Z</time>
      </trkpt>
      <trkpt lat="48.6142" lon="-2.96494">
        <ele>154</ele>
        <time>2020-06-24T07:23:08Z</time>
      </trkpt>
      <trkpt lat="48.61426" lon="-2.9649">
        <ele>157</ele>
        <time>2020-06-24T07:23:12Z</time>
      </trkpt>
      <trkpt lat="48.6143" lon="-2.96484">
        <ele>155</ele>
        <time>2020-06-24T07:23:15Z</time>
      </trkpt>
      <trkpt lat="48.61434" lon="-2.96479">
        <ele>152</ele>
        <time>2020-06-24T07:23:19Z</time>
      </trkpt>
      <trkpt lat="48.61437" lon="-2.96474">
        <ele>153</ele>
        <time>2020-06-24T07:23:22Z</time>
      </trkpt>
      <trkpt lat="48.61441" lon="-2.96467">
        <ele>155</ele>
        <time>2020-06-24T07:23:25Z</time>
      </trkpt>
      <trkpt lat="48.61444" lon="-2.96461">
        <ele>154</ele>
        <time>2020-06-24T07:23:28Z</time>
      </trkpt>
      <trkpt lat="48.61447" lon="-2.96455">
        <ele>154</ele>
        <time>2020-06-24T07:23:33Z</time>
      </trkpt>
      <trkpt lat="48.61451" lon="-2.96448">
        <ele>156</ele>
        <time>2020-06-24T07:23:38Z</time>
      </trkpt>
      <trkpt lat="48.61456" lon="-2.96443">
        <ele>155</ele>
        <time>2020-06-24T07:23:41Z</time>
      </trkpt>
      <trkpt lat="48.61459" lon="-2.96439">
        <ele>155</ele>
        <time>2020-06-24T07:23:45Z</time>
      </trkpt>
      <trkpt lat="48.61458" lon="-2.96432">
        <ele>155</ele>
        <time>2020-06-24T07:24:14Z</time>
      </trkpt>
      <trkpt lat="48.61461" lon="-2.96427">
        <ele>151</ele>
        <time>2020-06-24T07:24:20Z</time>
      </trkpt>
      <trkpt lat="48.61466" lon="-2.96424">
        <ele>153</ele>
        <time>2020-06-24T07:24:35Z</time>
      </trkpt>
      <trkpt lat="48.6147" lon="-2.96424">
        <ele>155</ele>
        <time>2020-06-24T07:24:49Z</time>
      </trkpt>
      <trkpt lat="48.61472" lon="-2.96421">
        <ele>157</ele>
        <time>2020-06-24T07:25:14Z</time>
      </trkpt>
      <trkpt lat="48.61471" lon="-2.96419">
        <ele>157</ele>
        <time>2020-06-24T07:25:16Z</time>
      </trkpt>
      <trkpt lat="48.61474" lon="-2.96413">
        <ele>153</ele>
        <time>2020-06-24T07:25:26Z</time>
      </trkpt>
      <trkpt lat="48.61489" lon="-2.96403">
        <ele>155</ele>
        <time>2020-06-24T07:26:11Z</time>
      </trkpt>
      <trkpt lat="48.6149" lon="-2.96402">
        <ele>151</ele>
        <time>2020-06-24T07:26:29Z</time>
      </trkpt>
      <trkpt lat="48.6149" lon="-2.96402">
        <ele>151</ele>
        <time>2020-06-24T07:26:31Z</time>
      </trkpt>
      <trkpt lat="48.6149" lon="-2.96402">
        <ele>151</ele>
        <time>2020-06-24T07:26:59Z</time>
      </trkpt>
      <trkpt lat="48.6149" lon="-2.96402">
        <ele>151</ele>
        <time>2020-06-24T07:27:01Z</time>
      </trkpt>
      <trkpt lat="48.61494" lon="-2.96399">
        <ele>154</ele>
        <time>2020-06-24T07:27:08Z</time>
      </trkpt>
      <trkpt lat="48.61501" lon="-2.96395">
        <ele>153</ele>
        <time>2020-06-24T07:27:11Z</time>
      </trkpt>
      <trkpt lat="48.61506" lon="-2.96392">
        <ele>154</ele>
        <time>2020-06-24T07:27:13Z</time>
      </trkpt>
      <trkpt lat="48.61511" lon="-2.96388">
        <ele>155</ele>
        <time>2020-06-24T07:27:15Z</time>
      </trkpt>
      <trkpt lat="48.61515" lon="-2.96385">
        <ele>160</ele>
        <time>2020-06-24T07:27:19Z</time>
      </trkpt>
      <trkpt lat="48.61512" lon="-2.96379">
        <ele>161</ele>
        <time>2020-06-24T07:27:29Z</time>
      </trkpt>
      <trkpt lat="48.61511" lon="-2.96377">
        <ele>163</ele>
        <time>2020-06-24T07:27:44Z</time>
      </trkpt>
      <trkpt lat="48.61511" lon="-2.96377">
        <ele>163</ele>
        <time>2020-06-24T07:27:46Z</time>
      </trkpt>
      <trkpt lat="48.61511" lon="-2.96377">
        <ele>161</ele>
        <time>2020-06-24T07:28:14Z</time>
      </trkpt>
      <trkpt lat="48.61511" lon="-2.96377">
        <ele>162</ele>
        <time>2020-06-24T07:28:16Z</time>
      </trkpt>
      <trkpt lat="48.61525" lon="-2.96356">
        <ele>158</ele>
        <time>2020-06-24T07:31:44Z</time>
      </trkpt>
      <trkpt lat="48.6153" lon="-2.96353">
        <ele>173</ele>
        <time>2020-06-24T07:31:46Z</time>
      </trkpt>
      <trkpt lat="48.61525" lon="-2.96356">
        <ele>164</ele>
        <time>2020-06-24T07:31:48Z</time>
      </trkpt>
      <trkpt lat="48.6153" lon="-2.96358">
        <ele>173</ele>
        <time>2020-06-24T07:31:56Z</time>
      </trkpt>
      <trkpt lat="48.61533" lon="-2.96353">
        <ele>174</ele>
        <time>2020-06-24T07:32:02Z</time>
      </trkpt>
      <trkpt lat="48.61537" lon="-2.96349">
        <ele>176</ele>
        <time>2020-06-24T07:32:20Z</time>
      </trkpt>
      <trkpt lat="48.61541" lon="-2.96345">
        <ele>150</ele>
        <time>2020-06-24T07:32:24Z</time>
      </trkpt>
      <trkpt lat="48.61545" lon="-2.9635">
        <ele>165</ele>
        <time>2020-06-24T07:32:29Z</time>
      </trkpt>
      <trkpt lat="48.61541" lon="-2.96352">
        <ele>157</ele>
        <time>2020-06-24T07:32:36Z</time>
      </trkpt>
      <trkpt lat="48.6154" lon="-2.96351">
        <ele>176</ele>
        <time>2020-06-24T07:32:59Z</time>
      </trkpt>
      <trkpt lat="48.61551" lon="-2.96336">
        <ele>176</ele>
        <time>2020-06-24T07:33:01Z</time>
      </trkpt>
      <trkpt lat="48.6154" lon="-2.96351">
        <ele>177</ele>
        <time>2020-06-24T07:33:03Z</time>
      </trkpt>
      <trkpt lat="48.61544" lon="-2.96347">
        <ele>175</ele>
        <time>2020-06-24T07:33:05Z</time>
      </trkpt>
      <trkpt lat="48.61548" lon="-2.96342">
        <ele>177</ele>
        <time>2020-06-24T07:33:09Z</time>
      </trkpt>
      <trkpt lat="48.61552" lon="-2.96342">
        <ele>180</ele>
        <time>2020-06-24T07:33:23Z</time>
      </trkpt>
      <trkpt lat="48.61557" lon="-2.96338">
        <ele>170</ele>
        <time>2020-06-24T07:33:33Z</time>
      </trkpt>
      <trkpt lat="48.6156" lon="-2.96332">
        <ele>166</ele>
        <time>2020-06-24T07:33:38Z</time>
      </trkpt>
      <trkpt lat="48.61569" lon="-2.96324">
        <ele>163</ele>
        <time>2020-06-24T07:33:53Z</time>
      </trkpt>
      <trkpt lat="48.61573" lon="-2.9632">
        <ele>158</ele>
        <time>2020-06-24T07:33:56Z</time>
      </trkpt>
      <trkpt lat="48.61577" lon="-2.96317">
        <ele>158</ele>
        <time>2020-06-24T07:33:59Z</time>
      </trkpt>
      <trkpt lat="48.61582" lon="-2.96315">
        <ele>161</ele>
        <time>2020-06-24T07:34:04Z</time>
      </trkpt>
      <trkpt lat="48.61587" lon="-2.96311">
        <ele>162</ele>
        <time>2020-06-24T07:34:08Z</time>
      </trkpt>
      <trkpt lat="48.61591" lon="-2.96308">
        <ele>163</ele>
        <time>2020-06-24T07:34:15Z</time>
      </trkpt>
      <trkpt lat="48.61595" lon="-2.96303">
        <ele>162</ele>
        <time>2020-06-24T07:34:18Z</time>
      </trkpt>
      <trkpt lat="48.61599" lon="-2.96299">
        <ele>162</ele>
        <time>2020-06-24T07:34:22Z</time>
      </trkpt>
      <trkpt lat="48.61602" lon="-2.96292">
        <ele>162</ele>
        <time>2020-06-24T07:34:27Z</time>
      </trkpt>
      <trkpt lat="48.61606" lon="-2.96288">
        <ele>160</ele>
        <time>2020-06-24T07:34:32Z</time>
      </trkpt>
      <trkpt lat="48.61608" lon="-2.96282">
        <ele>162</ele>
        <time>2020-06-24T07:34:39Z</time>
      </trkpt>
      <trkpt lat="48.61612" lon="-2.96277">
        <ele>164</ele>
        <time>2020-06-24T07:34:42Z</time>
      </trkpt>
      <trkpt lat="48.61617" lon="-2.96274">
        <ele>165</ele>
        <time>2020-06-24T07:34:46Z</time>
      </trkpt>
      <trkpt lat="48.61619" lon="-2.96268">
        <ele>168</ele>
        <time>2020-06-24T07:34:52Z</time>
      </trkpt>
      <trkpt lat="48.61624" lon="-2.96267">
        <ele>161</ele>
        <time>2020-06-24T07:34:58Z</time>
      </trkpt>
      <trkpt lat="48.61628" lon="-2.96266">
        <ele>166</ele>
        <time>2020-06-24T07:35:14Z</time>
      </trkpt>
      <trkpt lat="48.61628" lon="-2.96265">
        <ele>167</ele>
        <time>2020-06-24T07:35:17Z</time>
      </trkpt>
      <trkpt lat="48.6163" lon="-2.96258">
        <ele>168</ele>
        <time>2020-06-24T07:35:32Z</time>
      </trkpt>
      <trkpt lat="48.61633" lon="-2.96252">
        <ele>166</ele>
        <time>2020-06-24T07:35:34Z</time>
      </trkpt>
      <trkpt lat="48.61637" lon="-2.96247">
        <ele>165</ele>
        <time>2020-06-24T07:35:36Z</time>
      </trkpt>
      <trkpt lat="48.61643" lon="-2.96242">
        <ele>167</ele>
        <time>2020-06-24T07:35:39Z</time>
      </trkpt>
      <trkpt lat="48.61647" lon="-2.96238">
        <ele>163</ele>
        <time>2020-06-24T07:35:42Z</time>
      </trkpt>
      <trkpt lat="48.61651" lon="-2.96234">
        <ele>161</ele>
        <time>2020-06-24T07:35:45Z</time>
      </trkpt>
      <trkpt lat="48.61655" lon="-2.96229">
        <ele>158</ele>
        <time>2020-06-24T07:35:53Z</time>
      </trkpt>
      <trkpt lat="48.61659" lon="-2.96223">
        <ele>162</ele>
        <time>2020-06-24T07:36:01Z</time>
      </trkpt>
      <trkpt lat="48.61663" lon="-2.9622">
        <ele>164</ele>
        <time>2020-06-24T07:36:05Z</time>
      </trkpt>
      <trkpt lat="48.61668" lon="-2.96217">
        <ele>167</ele>
        <time>2020-06-24T07:36:09Z</time>
      </trkpt>
      <trkpt lat="48.6167" lon="-2.96211">
        <ele>159</ele>
        <time>2020-06-24T07:36:23Z</time>
      </trkpt>
      <trkpt lat="48.61675" lon="-2.96207">
        <ele>160</ele>
        <time>2020-06-24T07:36:29Z</time>
      </trkpt>
      <trkpt lat="48.61679" lon="-2.96201">
        <ele>161</ele>
        <time>2020-06-24T07:36:39Z</time>
      </trkpt>
      <trkpt lat="48.61683" lon="-2.96197">
        <ele>161</ele>
        <time>2020-06-24T07:36:48Z</time>
      </trkpt>
      <trkpt lat="48.61685" lon="-2.96188">
        <ele>163</ele>
        <time>2020-06-24T07:36:52Z</time>
      </trkpt>
      <trkpt lat="48.61689" lon="-2.96185">
        <ele>164</ele>
        <time>2020-06-24T07:36:56Z</time>
      </trkpt>
      <trkpt lat="48.61693" lon="-2.9618">
        <ele>164</ele>
        <time>2020-06-24T07:37:02Z</time>
      </trkpt>
      <trkpt lat="48.61697" lon="-2.96175">
        <ele>161</ele>
        <time>2020-06-24T07:37:07Z</time>
      </trkpt>
      <trkpt lat="48.617" lon="-2.96169">
        <ele>158</ele>
        <time>2020-06-24T07:37:23Z</time>
      </trkpt>
      <trkpt lat="48.61704" lon="-2.96164">
        <ele>158</ele>
        <time>2020-06-24T07:37:27Z</time>
      </trkpt>
      <trkpt lat="48.61708" lon="-2.96162">
        <ele>160</ele>
        <time>2020-06-24T07:37:32Z</time>
      </trkpt>
      <trkpt lat="48.61712" lon="-2.96158">
        <ele>156</ele>
        <time>2020-06-24T07:37:37Z</time>
      </trkpt>
      <trkpt lat="48.61713" lon="-2.9615">
        <ele>150</ele>
        <time>2020-06-24T07:37:50Z</time>
      </trkpt>
      <trkpt lat="48.61716" lon="-2.96143">
        <ele>152</ele>
        <time>2020-06-24T07:37:56Z</time>
      </trkpt>
      <trkpt lat="48.61721" lon="-2.96142">
        <ele>154</ele>
        <time>2020-06-24T07:38:01Z</time>
      </trkpt>
      <trkpt lat="48.61725" lon="-2.96138">
        <ele>153</ele>
        <time>2020-06-24T07:38:10Z</time>
      </trkpt>
      <trkpt lat="48.61729" lon="-2.96134">
        <ele>149</ele>
        <time>2020-06-24T07:38:14Z</time>
      </trkpt>
      <trkpt lat="48.61734" lon="-2.96131">
        <ele>151</ele>
        <time>2020-06-24T07:38:16Z</time>
      </trkpt>
      <trkpt lat="48.61738" lon="-2.96124">
        <ele>155</ele>
        <time>2020-06-24T07:38:19Z</time>
      </trkpt>
      <trkpt lat="48.61741" lon="-2.96117">
        <ele>153</ele>
        <time>2020-06-24T07:38:23Z</time>
      </trkpt>
      <trkpt lat="48.61744" lon="-2.96111">
        <ele>153</ele>
        <time>2020-06-24T07:38:34Z</time>
      </trkpt>
      <trkpt lat="48.61748" lon="-2.96106">
        <ele>155</ele>
        <time>2020-06-24T07:38:37Z</time>
      </trkpt>
      <trkpt lat="48.61752" lon="-2.96101">
        <ele>156</ele>
        <time>2020-06-24T07:38:40Z</time>
      </trkpt>
      <trkpt lat="48.61748" lon="-2.96097">
        <ele>156</ele>
        <time>2020-06-24T07:38:44Z</time>
      </trkpt>
      <trkpt lat="48.61749" lon="-2.96098">
        <ele>157</ele>
        <time>2020-06-24T07:38:59Z</time>
      </trkpt>
      <trkpt lat="48.61749" lon="-2.96098">
        <ele>157</ele>
        <time>2020-06-24T07:39:02Z</time>
      </trkpt>
      <trkpt lat="48.6175" lon="-2.96089">
        <ele>157</ele>
        <time>2020-06-24T07:39:14Z</time>
      </trkpt>
      <trkpt lat="48.61751" lon="-2.96081">
        <ele>158</ele>
        <time>2020-06-24T07:39:18Z</time>
      </trkpt>
      <trkpt lat="48.61753" lon="-2.96074">
        <ele>158</ele>
        <time>2020-06-24T07:39:21Z</time>
      </trkpt>
      <trkpt lat="48.61753" lon="-2.96066">
        <ele>158</ele>
        <time>2020-06-24T07:39:23Z</time>
      </trkpt>
      <trkpt lat="48.61749" lon="-2.96057">
        <ele>158</ele>
        <time>2020-06-24T07:39:26Z</time>
      </trkpt>
      <trkpt lat="48.61746" lon="-2.96049">
        <ele>159</ele>
        <time>2020-06-24T07:39:29Z</time>
      </trkpt>
      <trkpt lat="48.61746" lon="-2.96041">
        <ele>160</ele>
        <time>2020-06-24T07:39:32Z</time>
      </trkpt>
      <trkpt lat="48.6175" lon="-2.96038">
        <ele>160</ele>
        <time>2020-06-24T07:39:37Z</time>
      </trkpt>
      <trkpt lat="48.61751" lon="-2.96029">
        <ele>160</ele>
        <time>2020-06-24T07:39:44Z</time>
      </trkpt>
      <trkpt lat="48.6175" lon="-2.96021">
        <ele>161</ele>
        <time>2020-06-24T07:39:47Z</time>
      </trkpt>
      <trkpt lat="48.61751" lon="-2.96013">
        <ele>159</ele>
        <time>2020-06-24T07:39:51Z</time>
      </trkpt>
      <trkpt lat="48.6175" lon="-2.96004">
        <ele>158</ele>
        <time>2020-06-24T07:39:55Z</time>
      </trkpt>
      <trkpt lat="48.61751" lon="-2.95997">
        <ele>156</ele>
        <time>2020-06-24T07:39:58Z</time>
      </trkpt>
      <trkpt lat="48.61752" lon="-2.9599">
        <ele>156</ele>
        <time>2020-06-24T07:40:01Z</time>
      </trkpt>
      <trkpt lat="48.61751" lon="-2.95983">
        <ele>157</ele>
        <time>2020-06-24T07:40:04Z</time>
      </trkpt>
      <trkpt lat="48.61752" lon="-2.95976">
        <ele>159</ele>
        <time>2020-06-24T07:40:08Z</time>
      </trkpt>
      <trkpt lat="48.61755" lon="-2.95971">
        <ele>160</ele>
        <time>2020-06-24T07:40:10Z</time>
      </trkpt>
      <trkpt lat="48.61755" lon="-2.95964">
        <ele>159</ele>
        <time>2020-06-24T07:40:21Z</time>
      </trkpt>
      <trkpt lat="48.61754" lon="-2.95955">
        <ele>158</ele>
        <time>2020-06-24T07:40:29Z</time>
      </trkpt>
      <trkpt lat="48.61751" lon="-2.95949">
        <ele>158</ele>
        <time>2020-06-24T07:40:32Z</time>
      </trkpt>
      <trkpt lat="48.61755" lon="-2.95944">
        <ele>155</ele>
        <time>2020-06-24T07:40:42Z</time>
      </trkpt>
      <trkpt lat="48.61758" lon="-2.95939">
        <ele>150</ele>
        <time>2020-06-24T07:40:45Z</time>
      </trkpt>
      <trkpt lat="48.61761" lon="-2.95932">
        <ele>153</ele>
        <time>2020-06-24T07:40:48Z</time>
      </trkpt>
      <trkpt lat="48.61764" lon="-2.95925">
        <ele>151</ele>
        <time>2020-06-24T07:40:51Z</time>
      </trkpt>
      <trkpt lat="48.61764" lon="-2.95917">
        <ele>153</ele>
        <time>2020-06-24T07:40:54Z</time>
      </trkpt>
      <trkpt lat="48.61761" lon="-2.95911">
        <ele>154</ele>
        <time>2020-06-24T07:40:58Z</time>
      </trkpt>
      <trkpt lat="48.61761" lon="-2.95903">
        <ele>155</ele>
        <time>2020-06-24T07:41:02Z</time>
      </trkpt>
      <trkpt lat="48.61763" lon="-2.95895">
        <ele>156</ele>
        <time>2020-06-24T07:41:06Z</time>
      </trkpt>
      <trkpt lat="48.61763" lon="-2.95886">
        <ele>159</ele>
        <time>2020-06-24T07:41:09Z</time>
      </trkpt>
      <trkpt lat="48.61764" lon="-2.95878">
        <ele>161</ele>
        <time>2020-06-24T07:41:12Z</time>
      </trkpt>
      <trkpt lat="48.61766" lon="-2.95872">
        <ele>161</ele>
        <time>2020-06-24T07:41:15Z</time>
      </trkpt>
      <trkpt lat="48.61763" lon="-2.95873">
        <ele>164</ele>
        <time>2020-06-24T07:41:44Z</time>
      </trkpt>
      <trkpt lat="48.61763" lon="-2.95873">
        <ele>164</ele>
        <time>2020-06-24T07:41:47Z</time>
      </trkpt>
      <trkpt lat="48.61764" lon="-2.95873">
        <ele>166</ele>
        <time>2020-06-24T07:42:15Z</time>
      </trkpt>
      <trkpt lat="48.61762" lon="-2.95875">
        <ele>184</ele>
        <time>2020-06-24T07:42:17Z</time>
      </trkpt>
      <trkpt lat="48.61796" lon="-2.95905">
        <ele>165</ele>
        <time>2020-06-24T07:43:07Z</time>
      </trkpt>
      <trkpt lat="48.61801" lon="-2.95903">
        <ele>167</ele>
        <time>2020-06-24T07:43:10Z</time>
      </trkpt>
      <trkpt lat="48.61805" lon="-2.95908">
        <ele>162</ele>
        <time>2020-06-24T07:43:17Z</time>
      </trkpt>
      <trkpt lat="48.6181" lon="-2.95914">
        <ele>161</ele>
        <time>2020-06-24T07:43:20Z</time>
      </trkpt>
      <trkpt lat="48.61815" lon="-2.95916">
        <ele>166</ele>
        <time>2020-06-24T07:43:24Z</time>
      </trkpt>
      <trkpt lat="48.6182" lon="-2.95922">
        <ele>162</ele>
        <time>2020-06-24T07:43:28Z</time>
      </trkpt>
      <trkpt lat="48.61824" lon="-2.95928">
        <ele>163</ele>
        <time>2020-06-24T07:43:31Z</time>
      </trkpt>
      <trkpt lat="48.61828" lon="-2.95934">
        <ele>158</ele>
        <time>2020-06-24T07:43:36Z</time>
      </trkpt>
      <trkpt lat="48.61833" lon="-2.95936">
        <ele>160</ele>
        <time>2020-06-24T07:43:40Z</time>
      </trkpt>
      <trkpt lat="48.61838" lon="-2.95938">
        <ele>156</ele>
        <time>2020-06-24T07:43:44Z</time>
      </trkpt>
      <trkpt lat="48.61843" lon="-2.9594">
        <ele>157</ele>
        <time>2020-06-24T07:43:47Z</time>
      </trkpt>
      <trkpt lat="48.61848" lon="-2.95942">
        <ele>156</ele>
        <time>2020-06-24T07:43:51Z</time>
      </trkpt>
      <trkpt lat="48.61852" lon="-2.95943">
        <ele>155</ele>
        <time>2020-06-24T07:43:55Z</time>
      </trkpt>
      <trkpt lat="48.61857" lon="-2.95942">
        <ele>157</ele>
        <time>2020-06-24T07:44:01Z</time>
      </trkpt>
      <trkpt lat="48.61861" lon="-2.95944">
        <ele>157</ele>
        <time>2020-06-24T07:44:04Z</time>
      </trkpt>
      <trkpt lat="48.61866" lon="-2.95945">
        <ele>160</ele>
        <time>2020-06-24T07:44:08Z</time>
      </trkpt>
      <trkpt lat="48.61871" lon="-2.95945">
        <ele>157</ele>
        <time>2020-06-24T07:44:12Z</time>
      </trkpt>
      <trkpt lat="48.61875" lon="-2.95948">
        <ele>157</ele>
        <time>2020-06-24T07:44:16Z</time>
      </trkpt>
      <trkpt lat="48.61879" lon="-2.95952">
        <ele>155</ele>
        <time>2020-06-24T07:44:21Z</time>
      </trkpt>
      <trkpt lat="48.61883" lon="-2.95957">
        <ele>157</ele>
        <time>2020-06-24T07:44:25Z</time>
      </trkpt>
      <trkpt lat="48.61887" lon="-2.95962">
        <ele>161</ele>
        <time>2020-06-24T07:44:33Z</time>
      </trkpt>
      <trkpt lat="48.61891" lon="-2.95965">
        <ele>162</ele>
        <time>2020-06-24T07:44:41Z</time>
      </trkpt>
      <trkpt lat="48.61896" lon="-2.95969">
        <ele>160</ele>
        <time>2020-06-24T07:44:44Z</time>
      </trkpt>
      <trkpt lat="48.61902" lon="-2.95972">
        <ele>160</ele>
        <time>2020-06-24T07:44:47Z</time>
      </trkpt>
      <trkpt lat="48.61907" lon="-2.95976">
        <ele>161</ele>
        <time>2020-06-24T07:44:50Z</time>
      </trkpt>
      <trkpt lat="48.61912" lon="-2.95977">
        <ele>164</ele>
        <time>2020-06-24T07:44:54Z</time>
      </trkpt>
      <trkpt lat="48.61916" lon="-2.95979">
        <ele>162</ele>
        <time>2020-06-24T07:44:57Z</time>
      </trkpt>
      <trkpt lat="48.61921" lon="-2.95984">
        <ele>162</ele>
        <time>2020-06-24T07:45:01Z</time>
      </trkpt>
      <trkpt lat="48.61926" lon="-2.9599">
        <ele>162</ele>
        <time>2020-06-24T07:45:04Z</time>
      </trkpt>
      <trkpt lat="48.6193" lon="-2.95995">
        <ele>161</ele>
        <time>2020-06-24T07:45:08Z</time>
      </trkpt>
      <trkpt lat="48.61933" lon="-2.96001">
        <ele>161</ele>
        <time>2020-06-24T07:45:11Z</time>
      </trkpt>
      <trkpt lat="48.61934" lon="-2.96008">
        <ele>158</ele>
        <time>2020-06-24T07:45:15Z</time>
      </trkpt>
      <trkpt lat="48.61932" lon="-2.96014">
        <ele>158</ele>
        <time>2020-06-24T07:45:20Z</time>
      </trkpt>
      <trkpt lat="48.61934" lon="-2.96021">
        <ele>159</ele>
        <time>2020-06-24T07:45:25Z</time>
      </trkpt>
      <trkpt lat="48.61935" lon="-2.96028">
        <ele>159</ele>
        <time>2020-06-24T07:45:37Z</time>
      </trkpt>
      <trkpt lat="48.61936" lon="-2.96035">
        <ele>163</ele>
        <time>2020-06-24T07:45:43Z</time>
      </trkpt>
      <trkpt lat="48.61939" lon="-2.96037">
        <ele>163</ele>
        <time>2020-06-24T07:46:00Z</time>
      </trkpt>
      <trkpt lat="48.61943" lon="-2.96038">
        <ele>171</ele>
        <time>2020-06-24T07:46:02Z</time>
      </trkpt>
      <trkpt lat="48.61944" lon="-2.96045">
        <ele>166</ele>
        <time>2020-06-24T07:46:20Z</time>
      </trkpt>
      <trkpt lat="48.61948" lon="-2.96048">
        <ele>162</ele>
        <time>2020-06-24T07:46:24Z</time>
      </trkpt>
      <trkpt lat="48.61953" lon="-2.96049">
        <ele>164</ele>
        <time>2020-06-24T07:46:28Z</time>
      </trkpt>
      <trkpt lat="48.61954" lon="-2.96058">
        <ele>165</ele>
        <time>2020-06-24T07:46:37Z</time>
      </trkpt>
      <trkpt lat="48.61957" lon="-2.96064">
        <ele>166</ele>
        <time>2020-06-24T07:46:42Z</time>
      </trkpt>
      <trkpt lat="48.61962" lon="-2.96068">
        <ele>166</ele>
        <time>2020-06-24T07:46:45Z</time>
      </trkpt>
      <trkpt lat="48.61965" lon="-2.96074">
        <ele>164</ele>
        <time>2020-06-24T07:46:51Z</time>
      </trkpt>
      <trkpt lat="48.6197" lon="-2.96076">
        <ele>165</ele>
        <time>2020-06-24T07:47:01Z</time>
      </trkpt>
      <trkpt lat="48.61975" lon="-2.96079">
        <ele>166</ele>
        <time>2020-06-24T07:47:05Z</time>
      </trkpt>
      <trkpt lat="48.6198" lon="-2.96082">
        <ele>164</ele>
        <time>2020-06-24T07:47:08Z</time>
      </trkpt>
      <trkpt lat="48.61981" lon="-2.96089">
        <ele>163</ele>
        <time>2020-06-24T07:47:14Z</time>
      </trkpt>
      <trkpt lat="48.61986" lon="-2.96092">
        <ele>162</ele>
        <time>2020-06-24T07:47:17Z</time>
      </trkpt>
      <trkpt lat="48.6199" lon="-2.96092">
        <ele>167</ele>
        <time>2020-06-24T07:47:36Z</time>
      </trkpt>
      <trkpt lat="48.61996" lon="-2.96096">
        <ele>161</ele>
        <time>2020-06-24T07:47:39Z</time>
      </trkpt>
      <trkpt lat="48.62" lon="-2.961">
        <ele>162</ele>
        <time>2020-06-24T07:47:41Z</time>
      </trkpt>
      <trkpt lat="48.62005" lon="-2.96101">
        <ele>161</ele>
        <time>2020-06-24T07:47:44Z</time>
      </trkpt>
      <trkpt lat="48.6201" lon="-2.96099">
        <ele>156</ele>
        <time>2020-06-24T07:47:52Z</time>
      </trkpt>
      <trkpt lat="48.62011" lon="-2.96098">
        <ele>155</ele>
        <time>2020-06-24T07:48:15Z</time>
      </trkpt>
      <trkpt lat="48.62011" lon="-2.96098">
        <ele>155</ele>
        <time>2020-06-24T07:48:17Z</time>
      </trkpt>
      <trkpt lat="48.62013" lon="-2.9609">
        <ele>155</ele>
        <time>2020-06-24T07:48:30Z</time>
      </trkpt>
      <trkpt lat="48.62011" lon="-2.96082">
        <ele>155</ele>
        <time>2020-06-24T07:48:34Z</time>
      </trkpt>
      <trkpt lat="48.62007" lon="-2.96077">
        <ele>156</ele>
        <time>2020-06-24T07:48:39Z</time>
      </trkpt>
      <trkpt lat="48.62013" lon="-2.96074">
        <ele>158</ele>
        <time>2020-06-24T07:48:44Z</time>
      </trkpt>
      <trkpt lat="48.62017" lon="-2.96071">
        <ele>160</ele>
        <time>2020-06-24T07:48:49Z</time>
      </trkpt>
      <trkpt lat="48.62024" lon="-2.96079">
        <ele>163</ele>
        <time>2020-06-24T07:49:29Z</time>
      </trkpt>
      <trkpt lat="48.62028" lon="-2.96076">
        <ele>156</ele>
        <time>2020-06-24T07:49:37Z</time>
      </trkpt>
      <trkpt lat="48.62034" lon="-2.96078">
        <ele>156</ele>
        <time>2020-06-24T07:49:52Z</time>
      </trkpt>
      <trkpt lat="48.62038" lon="-2.9608">
        <ele>156</ele>
        <time>2020-06-24T07:49:55Z</time>
      </trkpt>
      <trkpt lat="48.62043" lon="-2.96083">
        <ele>156</ele>
        <time>2020-06-24T07:50:00Z</time>
      </trkpt>
      <trkpt lat="48.62048" lon="-2.96086">
        <ele>155</ele>
        <time>2020-06-24T07:50:03Z</time>
      </trkpt>
      <trkpt lat="48.62049" lon="-2.96094">
        <ele>155</ele>
        <time>2020-06-24T07:50:09Z</time>
      </trkpt>
      <trkpt lat="48.62053" lon="-2.96097">
        <ele>157</ele>
        <time>2020-06-24T07:50:11Z</time>
      </trkpt>
      <trkpt lat="48.62058" lon="-2.96096">
        <ele>157</ele>
        <time>2020-06-24T07:50:13Z</time>
      </trkpt>
      <trkpt lat="48.62063" lon="-2.96097">
        <ele>159</ele>
        <time>2020-06-24T07:50:20Z</time>
      </trkpt>
      <trkpt lat="48.62068" lon="-2.961">
        <ele>159</ele>
        <time>2020-06-24T07:50:25Z</time>
      </trkpt>
      <trkpt lat="48.62073" lon="-2.96105">
        <ele>162</ele>
        <time>2020-06-24T07:50:29Z</time>
      </trkpt>
      <trkpt lat="48.62078" lon="-2.96105">
        <ele>163</ele>
        <time>2020-06-24T07:50:32Z</time>
      </trkpt>
      <trkpt lat="48.62082" lon="-2.96104">
        <ele>160</ele>
        <time>2020-06-24T07:50:37Z</time>
      </trkpt>
      <trkpt lat="48.62087" lon="-2.96106">
        <ele>161</ele>
        <time>2020-06-24T07:50:40Z</time>
      </trkpt>
      <trkpt lat="48.62091" lon="-2.96111">
        <ele>157</ele>
        <time>2020-06-24T07:50:46Z</time>
      </trkpt>
      <trkpt lat="48.62096" lon="-2.96108">
        <ele>154</ele>
        <time>2020-06-24T07:50:49Z</time>
      </trkpt>
      <trkpt lat="48.62101" lon="-2.9611">
        <ele>157</ele>
        <time>2020-06-24T07:50:55Z</time>
      </trkpt>
      <trkpt lat="48.62107" lon="-2.96113">
        <ele>156</ele>
        <time>2020-06-24T07:50:58Z</time>
      </trkpt>
      <trkpt lat="48.62111" lon="-2.96117">
        <ele>157</ele>
        <time>2020-06-24T07:51:01Z</time>
      </trkpt>
      <trkpt lat="48.62114" lon="-2.96123">
        <ele>160</ele>
        <time>2020-06-24T07:51:04Z</time>
      </trkpt>
      <trkpt lat="48.62119" lon="-2.96126">
        <ele>155</ele>
        <time>2020-06-24T07:51:10Z</time>
      </trkpt>
      <trkpt lat="48.62124" lon="-2.96127">
        <ele>152</ele>
        <time>2020-06-24T07:51:12Z</time>
      </trkpt>
      <trkpt lat="48.62129" lon="-2.96128">
        <ele>152</ele>
        <time>2020-06-24T07:51:16Z</time>
      </trkpt>
      <trkpt lat="48.62134" lon="-2.96129">
        <ele>153</ele>
        <time>2020-06-24T07:51:20Z</time>
      </trkpt>
      <trkpt lat="48.62139" lon="-2.96133">
        <ele>155</ele>
        <time>2020-06-24T07:51:24Z</time>
      </trkpt>
      <trkpt lat="48.62143" lon="-2.96138">
        <ele>157</ele>
        <time>2020-06-24T07:51:39Z</time>
      </trkpt>
      <trkpt lat="48.62147" lon="-2.96142">
        <ele>156</ele>
        <time>2020-06-24T07:51:43Z</time>
      </trkpt>
      <trkpt lat="48.62151" lon="-2.96145">
        <ele>155</ele>
        <time>2020-06-24T07:51:46Z</time>
      </trkpt>
      <trkpt lat="48.62156" lon="-2.96146">
        <ele>156</ele>
        <time>2020-06-24T07:51:49Z</time>
      </trkpt>
      <trkpt lat="48.62162" lon="-2.96149">
        <ele>155</ele>
        <time>2020-06-24T07:51:53Z</time>
      </trkpt>
      <trkpt lat="48.62166" lon="-2.96153">
        <ele>157</ele>
        <time>2020-06-24T07:52:02Z</time>
      </trkpt>
      <trkpt lat="48.6217" lon="-2.96157">
        <ele>154</ele>
        <time>2020-06-24T07:52:07Z</time>
      </trkpt>
      <trkpt lat="48.62174" lon="-2.9616">
        <ele>154</ele>
        <time>2020-06-24T07:52:11Z</time>
      </trkpt>
      <trkpt lat="48.62178" lon="-2.96163">
        <ele>156</ele>
        <time>2020-06-24T07:52:18Z</time>
      </trkpt>
      <trkpt lat="48.62183" lon="-2.96163">
        <ele>158</ele>
        <time>2020-06-24T07:52:26Z</time>
      </trkpt>
      <trkpt lat="48.62187" lon="-2.96162">
        <ele>150</ele>
        <time>2020-06-24T07:52:45Z</time>
      </trkpt>
      <trkpt lat="48.62187" lon="-2.96162">
        <ele>150</ele>
        <time>2020-06-24T07:52:47Z</time>
      </trkpt>
      <trkpt lat="48.62189" lon="-2.96169">
        <ele>155</ele>
        <time>2020-06-24T07:53:07Z</time>
      </trkpt>
      <trkpt lat="48.62194" lon="-2.9617">
        <ele>155</ele>
        <time>2020-06-24T07:53:13Z</time>
      </trkpt>
      <trkpt lat="48.62199" lon="-2.96174">
        <ele>155</ele>
        <time>2020-06-24T07:53:18Z</time>
      </trkpt>
      <trkpt lat="48.62204" lon="-2.96178">
        <ele>155</ele>
        <time>2020-06-24T07:53:22Z</time>
      </trkpt>
      <trkpt lat="48.62209" lon="-2.96178">
        <ele>154</ele>
        <time>2020-06-24T07:53:26Z</time>
      </trkpt>
      <trkpt lat="48.62214" lon="-2.96179">
        <ele>151</ele>
        <time>2020-06-24T07:53:30Z</time>
      </trkpt>
      <trkpt lat="48.62218" lon="-2.96183">
        <ele>150</ele>
        <time>2020-06-24T07:53:35Z</time>
      </trkpt>
      <trkpt lat="48.62223" lon="-2.96185">
        <ele>149</ele>
        <time>2020-06-24T07:53:41Z</time>
      </trkpt>
      <trkpt lat="48.62228" lon="-2.96187">
        <ele>149</ele>
        <time>2020-06-24T07:53:44Z</time>
      </trkpt>
      <trkpt lat="48.62233" lon="-2.9619">
        <ele>148</ele>
        <time>2020-06-24T07:53:49Z</time>
      </trkpt>
      <trkpt lat="48.62237" lon="-2.96193">
        <ele>148</ele>
        <time>2020-06-24T07:53:52Z</time>
      </trkpt>
      <trkpt lat="48.62242" lon="-2.96198">
        <ele>149</ele>
        <time>2020-06-24T07:53:55Z</time>
      </trkpt>
      <trkpt lat="48.62246" lon="-2.96201">
        <ele>148</ele>
        <time>2020-06-24T07:54:00Z</time>
      </trkpt>
      <trkpt lat="48.62252" lon="-2.96202">
        <ele>150</ele>
        <time>2020-06-24T07:54:04Z</time>
      </trkpt>
      <trkpt lat="48.62257" lon="-2.96202">
        <ele>150</ele>
        <time>2020-06-24T07:54:06Z</time>
      </trkpt>
      <trkpt lat="48.62262" lon="-2.96203">
        <ele>148</ele>
        <time>2020-06-24T07:54:12Z</time>
      </trkpt>
      <trkpt lat="48.62267" lon="-2.96199">
        <ele>148</ele>
        <time>2020-06-24T07:54:16Z</time>
      </trkpt>
      <trkpt lat="48.62271" lon="-2.96195">
        <ele>149</ele>
        <time>2020-06-24T07:54:22Z</time>
      </trkpt>
      <trkpt lat="48.62275" lon="-2.96192">
        <ele>150</ele>
        <time>2020-06-24T07:54:25Z</time>
      </trkpt>
      <trkpt lat="48.6228" lon="-2.96189">
        <ele>150</ele>
        <time>2020-06-24T07:54:29Z</time>
      </trkpt>
      <trkpt lat="48.62283" lon="-2.96183">
        <ele>151</ele>
        <time>2020-06-24T07:54:33Z</time>
      </trkpt>
      <trkpt lat="48.62287" lon="-2.96179">
        <ele>147</ele>
        <time>2020-06-24T07:54:37Z</time>
      </trkpt>
      <trkpt lat="48.62291" lon="-2.96177">
        <ele>149</ele>
        <time>2020-06-24T07:54:49Z</time>
      </trkpt>
      <trkpt lat="48.62295" lon="-2.96174">
        <ele>148</ele>
        <time>2020-06-24T07:54:54Z</time>
      </trkpt>
      <trkpt lat="48.623" lon="-2.96172">
        <ele>151</ele>
        <time>2020-06-24T07:55:01Z</time>
      </trkpt>
      <trkpt lat="48.62305" lon="-2.96171">
        <ele>147</ele>
        <time>2020-06-24T07:55:05Z</time>
      </trkpt>
      <trkpt lat="48.62309" lon="-2.96167">
        <ele>147</ele>
        <time>2020-06-24T07:55:08Z</time>
      </trkpt>
      <trkpt lat="48.62314" lon="-2.96162">
        <ele>150</ele>
        <time>2020-06-24T07:55:13Z</time>
      </trkpt>
      <trkpt lat="48.62318" lon="-2.96161">
        <ele>152</ele>
        <time>2020-06-24T07:55:16Z</time>
      </trkpt>
      <trkpt lat="48.62323" lon="-2.96158">
        <ele>152</ele>
        <time>2020-06-24T07:55:19Z</time>
      </trkpt>
      <trkpt lat="48.62328" lon="-2.96154">
        <ele>148</ele>
        <time>2020-06-24T07:55:24Z</time>
      </trkpt>
      <trkpt lat="48.62332" lon="-2.9615">
        <ele>149</ele>
        <time>2020-06-24T07:55:28Z</time>
      </trkpt>
      <trkpt lat="48.62336" lon="-2.96147">
        <ele>151</ele>
        <time>2020-06-24T07:55:31Z</time>
      </trkpt>
      <trkpt lat="48.62342" lon="-2.96147">
        <ele>151</ele>
        <time>2020-06-24T07:55:34Z</time>
      </trkpt>
      <trkpt lat="48.62346" lon="-2.96147">
        <ele>151</ele>
        <time>2020-06-24T07:55:36Z</time>
      </trkpt>
      <trkpt lat="48.62351" lon="-2.96146">
        <ele>152</ele>
        <time>2020-06-24T07:55:41Z</time>
      </trkpt>
      <trkpt lat="48.62356" lon="-2.96144">
        <ele>154</ele>
        <time>2020-06-24T07:55:47Z</time>
      </trkpt>
      <trkpt lat="48.62362" lon="-2.96144">
        <ele>151</ele>
        <time>2020-06-24T07:56:12Z</time>
      </trkpt>
      <trkpt lat="48.62367" lon="-2.96145">
        <ele>148</ele>
        <time>2020-06-24T07:56:22Z</time>
      </trkpt>
      <trkpt lat="48.62371" lon="-2.96151">
        <ele>152</ele>
        <time>2020-06-24T07:56:35Z</time>
      </trkpt>
      <trkpt lat="48.62375" lon="-2.96156">
        <ele>148</ele>
        <time>2020-06-24T07:56:38Z</time>
      </trkpt>
      <trkpt lat="48.62379" lon="-2.96161">
        <ele>151</ele>
        <time>2020-06-24T07:56:41Z</time>
      </trkpt>
      <trkpt lat="48.62384" lon="-2.96165">
        <ele>153</ele>
        <time>2020-06-24T07:56:47Z</time>
      </trkpt>
      <trkpt lat="48.62389" lon="-2.96168">
        <ele>150</ele>
        <time>2020-06-24T07:56:50Z</time>
      </trkpt>
      <trkpt lat="48.62394" lon="-2.96172">
        <ele>150</ele>
        <time>2020-06-24T07:56:53Z</time>
      </trkpt>
      <trkpt lat="48.62399" lon="-2.96173">
        <ele>148</ele>
        <time>2020-06-24T07:56:59Z</time>
      </trkpt>
      <trkpt lat="48.62404" lon="-2.96176">
        <ele>151</ele>
        <time>2020-06-24T07:57:03Z</time>
      </trkpt>
      <trkpt lat="48.62409" lon="-2.96177">
        <ele>149</ele>
        <time>2020-06-24T07:57:07Z</time>
      </trkpt>
      <trkpt lat="48.62414" lon="-2.9618">
        <ele>147</ele>
        <time>2020-06-24T07:57:11Z</time>
      </trkpt>
      <trkpt lat="48.6242" lon="-2.96181">
        <ele>149</ele>
        <time>2020-06-24T07:57:13Z</time>
      </trkpt>
      <trkpt lat="48.62427" lon="-2.96181">
        <ele>148</ele>
        <time>2020-06-24T07:57:15Z</time>
      </trkpt>
      <trkpt lat="48.62431" lon="-2.96179">
        <ele>149</ele>
        <time>2020-06-24T07:57:17Z</time>
      </trkpt>
      <trkpt lat="48.62436" lon="-2.96175">
        <ele>148</ele>
        <time>2020-06-24T07:57:22Z</time>
      </trkpt>
      <trkpt lat="48.62441" lon="-2.96174">
        <ele>148</ele>
        <time>2020-06-24T07:57:26Z</time>
      </trkpt>
      <trkpt lat="48.62445" lon="-2.96174">
        <ele>150</ele>
        <time>2020-06-24T07:57:29Z</time>
      </trkpt>
      <trkpt lat="48.6245" lon="-2.96173">
        <ele>151</ele>
        <time>2020-06-24T07:57:33Z</time>
      </trkpt>
      <trkpt lat="48.62455" lon="-2.96171">
        <ele>149</ele>
        <time>2020-06-24T07:57:35Z</time>
      </trkpt>
      <trkpt lat="48.6246" lon="-2.9617">
        <ele>149</ele>
        <time>2020-06-24T07:57:38Z</time>
      </trkpt>
      <trkpt lat="48.62466" lon="-2.96169">
        <ele>148</ele>
        <time>2020-06-24T07:57:42Z</time>
      </trkpt>
      <trkpt lat="48.62471" lon="-2.96171">
        <ele>149</ele>
        <time>2020-06-24T07:57:49Z</time>
      </trkpt>
      <trkpt lat="48.62477" lon="-2.96172">
        <ele>147</ele>
        <time>2020-06-24T07:57:53Z</time>
      </trkpt>
      <trkpt lat="48.62481" lon="-2.96173">
        <ele>147</ele>
        <time>2020-06-24T07:57:57Z</time>
      </trkpt>
      <trkpt lat="48.62486" lon="-2.96173">
        <ele>145</ele>
        <time>2020-06-24T07:58:07Z</time>
      </trkpt>
      <trkpt lat="48.62491" lon="-2.96172">
        <ele>146</ele>
        <time>2020-06-24T07:58:11Z</time>
      </trkpt>
      <trkpt lat="48.62495" lon="-2.96168">
        <ele>146</ele>
        <time>2020-06-24T07:58:14Z</time>
      </trkpt>
      <trkpt lat="48.62498" lon="-2.96161">
        <ele>146</ele>
        <time>2020-06-24T07:58:20Z</time>
      </trkpt>
      <trkpt lat="48.62502" lon="-2.96156">
        <ele>146</ele>
        <time>2020-06-24T07:58:23Z</time>
      </trkpt>
      <trkpt lat="48.62507" lon="-2.96152">
        <ele>144</ele>
        <time>2020-06-24T07:58:26Z</time>
      </trkpt>
      <trkpt lat="48.62511" lon="-2.96146">
        <ele>145</ele>
        <time>2020-06-24T07:58:29Z</time>
      </trkpt>
      <trkpt lat="48.62514" lon="-2.96141">
        <ele>145</ele>
        <time>2020-06-24T07:58:31Z</time>
      </trkpt>
      <trkpt lat="48.62515" lon="-2.96133">
        <ele>144</ele>
        <time>2020-06-24T07:58:34Z</time>
      </trkpt>
      <trkpt lat="48.62518" lon="-2.96127">
        <ele>142</ele>
        <time>2020-06-24T07:58:40Z</time>
      </trkpt>
      <trkpt lat="48.62521" lon="-2.9612">
        <ele>144</ele>
        <time>2020-06-24T07:58:43Z</time>
      </trkpt>
      <trkpt lat="48.62522" lon="-2.96113">
        <ele>142</ele>
        <time>2020-06-24T07:58:46Z</time>
      </trkpt>
      <trkpt lat="48.62524" lon="-2.96105">
        <ele>143</ele>
        <time>2020-06-24T07:58:49Z</time>
      </trkpt>
      <trkpt lat="48.62526" lon="-2.96099">
        <ele>143</ele>
        <time>2020-06-24T07:58:51Z</time>
      </trkpt>
      <trkpt lat="48.62528" lon="-2.96093">
        <ele>143</ele>
        <time>2020-06-24T07:58:54Z</time>
      </trkpt>
      <trkpt lat="48.62531" lon="-2.96084">
        <ele>142</ele>
        <time>2020-06-24T07:59:01Z</time>
      </trkpt>
      <trkpt lat="48.62535" lon="-2.9608">
        <ele>143</ele>
        <time>2020-06-24T07:59:04Z</time>
      </trkpt>
      <trkpt lat="48.62537" lon="-2.96073">
        <ele>142</ele>
        <time>2020-06-24T07:59:07Z</time>
      </trkpt>
      <trkpt lat="48.62539" lon="-2.96065">
        <ele>143</ele>
        <time>2020-06-24T07:59:10Z</time>
      </trkpt>
      <trkpt lat="48.62539" lon="-2.96057">
        <ele>143</ele>
        <time>2020-06-24T07:59:13Z</time>
      </trkpt>
      <trkpt lat="48.62541" lon="-2.96049">
        <ele>141</ele>
        <time>2020-06-24T07:59:19Z</time>
      </trkpt>
      <trkpt lat="48.62546" lon="-2.96044">
        <ele>143</ele>
        <time>2020-06-24T07:59:22Z</time>
      </trkpt>
      <trkpt lat="48.6255" lon="-2.96038">
        <ele>143</ele>
        <time>2020-06-24T07:59:26Z</time>
      </trkpt>
      <trkpt lat="48.62555" lon="-2.96031">
        <ele>144</ele>
        <time>2020-06-24T07:59:29Z</time>
      </trkpt>
      <trkpt lat="48.6256" lon="-2.96027">
        <ele>143</ele>
        <time>2020-06-24T07:59:32Z</time>
      </trkpt>
      <trkpt lat="48.62565" lon="-2.96026">
        <ele>142</ele>
        <time>2020-06-24T07:59:36Z</time>
      </trkpt>
      <trkpt lat="48.62569" lon="-2.96024">
        <ele>141</ele>
        <time>2020-06-24T07:59:38Z</time>
      </trkpt>
      <trkpt lat="48.62574" lon="-2.96022">
        <ele>141</ele>
        <time>2020-06-24T07:59:41Z</time>
      </trkpt>
      <trkpt lat="48.62579" lon="-2.96018">
        <ele>142</ele>
        <time>2020-06-24T07:59:45Z</time>
      </trkpt>
      <trkpt lat="48.62584" lon="-2.96016">
        <ele>143</ele>
        <time>2020-06-24T07:59:49Z</time>
      </trkpt>
      <trkpt lat="48.62589" lon="-2.96013">
        <ele>143</ele>
        <time>2020-06-24T07:59:53Z</time>
      </trkpt>
      <trkpt lat="48.62593" lon="-2.96009">
        <ele>146</ele>
        <time>2020-06-24T08:00:03Z</time>
      </trkpt>
      <trkpt lat="48.62597" lon="-2.96007">
        <ele>146</ele>
        <time>2020-06-24T08:00:10Z</time>
      </trkpt>
      <trkpt lat="48.62602" lon="-2.96003">
        <ele>145</ele>
        <time>2020-06-24T08:00:19Z</time>
      </trkpt>
      <trkpt lat="48.62607" lon="-2.96">
        <ele>144</ele>
        <time>2020-06-24T08:00:22Z</time>
      </trkpt>
      <trkpt lat="48.62612" lon="-2.95995">
        <ele>145</ele>
        <time>2020-06-24T08:00:25Z</time>
      </trkpt>
      <trkpt lat="48.62616" lon="-2.95989">
        <ele>146</ele>
        <time>2020-06-24T08:00:27Z</time>
      </trkpt>
      <trkpt lat="48.6262" lon="-2.95985">
        <ele>144</ele>
        <time>2020-06-24T08:00:30Z</time>
      </trkpt>
      <trkpt lat="48.62625" lon="-2.95984">
        <ele>148</ele>
        <time>2020-06-24T08:00:45Z</time>
      </trkpt>
      <trkpt lat="48.62631" lon="-2.95984">
        <ele>149</ele>
        <time>2020-06-24T08:00:49Z</time>
      </trkpt>
      <trkpt lat="48.62636" lon="-2.95982">
        <ele>146</ele>
        <time>2020-06-24T08:00:52Z</time>
      </trkpt>
      <trkpt lat="48.6264" lon="-2.95981">
        <ele>145</ele>
        <time>2020-06-24T08:00:55Z</time>
      </trkpt>
      <trkpt lat="48.62645" lon="-2.95977">
        <ele>143</ele>
        <time>2020-06-24T08:01:01Z</time>
      </trkpt>
      <trkpt lat="48.62649" lon="-2.95973">
        <ele>147</ele>
        <time>2020-06-24T08:01:04Z</time>
      </trkpt>
      <trkpt lat="48.62653" lon="-2.95968">
        <ele>148</ele>
        <time>2020-06-24T08:01:06Z</time>
      </trkpt>
      <trkpt lat="48.62656" lon="-2.95961">
        <ele>145</ele>
        <time>2020-06-24T08:01:10Z</time>
      </trkpt>
      <trkpt lat="48.62655" lon="-2.95953">
        <ele>145</ele>
        <time>2020-06-24T08:01:14Z</time>
      </trkpt>
      <trkpt lat="48.62652" lon="-2.95946">
        <ele>145</ele>
        <time>2020-06-24T08:01:18Z</time>
      </trkpt>
      <trkpt lat="48.6265" lon="-2.95938">
        <ele>143</ele>
        <time>2020-06-24T08:01:21Z</time>
      </trkpt>
      <trkpt lat="48.6265" lon="-2.9593">
        <ele>143</ele>
        <time>2020-06-24T08:01:25Z</time>
      </trkpt>
      <trkpt lat="48.62649" lon="-2.95923">
        <ele>144</ele>
        <time>2020-06-24T08:01:27Z</time>
      </trkpt>
      <trkpt lat="48.62647" lon="-2.95915">
        <ele>145</ele>
        <time>2020-06-24T08:01:30Z</time>
      </trkpt>
      <trkpt lat="48.62648" lon="-2.95907">
        <ele>147</ele>
        <time>2020-06-24T08:01:35Z</time>
      </trkpt>
      <trkpt lat="48.62644" lon="-2.95902">
        <ele>142</ele>
        <time>2020-06-24T08:01:40Z</time>
      </trkpt>
      <trkpt lat="48.62642" lon="-2.95896">
        <ele>140</ele>
        <time>2020-06-24T08:01:58Z</time>
      </trkpt>
      <trkpt lat="48.62644" lon="-2.95893">
        <ele>139</ele>
        <time>2020-06-24T08:02:15Z</time>
      </trkpt>
      <trkpt lat="48.62644" lon="-2.95893">
        <ele>139</ele>
        <time>2020-06-24T08:02:17Z</time>
      </trkpt>
      <trkpt lat="48.62642" lon="-2.95888">
        <ele>140</ele>
        <time>2020-06-24T08:02:45Z</time>
      </trkpt>
      <trkpt lat="48.62639" lon="-2.95884">
        <ele>145</ele>
        <time>2020-06-24T08:02:47Z</time>
      </trkpt>
      <trkpt lat="48.62634" lon="-2.95881">
        <ele>145</ele>
        <time>2020-06-24T08:03:00Z</time>
      </trkpt>
      <trkpt lat="48.62631" lon="-2.95876">
        <ele>146</ele>
        <time>2020-06-24T08:03:03Z</time>
      </trkpt>
      <trkpt lat="48.62627" lon="-2.9587">
        <ele>146</ele>
        <time>2020-06-24T08:03:06Z</time>
      </trkpt>
      <trkpt lat="48.62624" lon="-2.95863">
        <ele>146</ele>
        <time>2020-06-24T08:03:09Z</time>
      </trkpt>
      <trkpt lat="48.62622" lon="-2.95856">
        <ele>145</ele>
        <time>2020-06-24T08:03:12Z</time>
      </trkpt>
      <trkpt lat="48.62622" lon="-2.95848">
        <ele>143</ele>
        <time>2020-06-24T08:03:18Z</time>
      </trkpt>
      <trkpt lat="48.62621" lon="-2.95841">
        <ele>142</ele>
        <time>2020-06-24T08:03:22Z</time>
      </trkpt>
      <trkpt lat="48.62619" lon="-2.95835">
        <ele>142</ele>
        <time>2020-06-24T08:03:25Z</time>
      </trkpt>
      <trkpt lat="48.62616" lon="-2.95829">
        <ele>144</ele>
        <time>2020-06-24T08:03:27Z</time>
      </trkpt>
      <trkpt lat="48.62615" lon="-2.95822">
        <ele>144</ele>
        <time>2020-06-24T08:03:31Z</time>
      </trkpt>
      <trkpt lat="48.62615" lon="-2.95813">
        <ele>145</ele>
        <time>2020-06-24T08:03:36Z</time>
      </trkpt>
      <trkpt lat="48.62615" lon="-2.95806">
        <ele>143</ele>
        <time>2020-06-24T08:03:43Z</time>
      </trkpt>
      <trkpt lat="48.6261" lon="-2.95803">
        <ele>140</ele>
        <time>2020-06-24T08:03:48Z</time>
      </trkpt>
      <trkpt lat="48.62608" lon="-2.95795">
        <ele>144</ele>
        <time>2020-06-24T08:03:51Z</time>
      </trkpt>
      <trkpt lat="48.6261" lon="-2.95788">
        <ele>144</ele>
        <time>2020-06-24T08:03:54Z</time>
      </trkpt>
      <trkpt lat="48.62608" lon="-2.9578">
        <ele>148</ele>
        <time>2020-06-24T08:04:03Z</time>
      </trkpt>
      <trkpt lat="48.62605" lon="-2.95772">
        <ele>145</ele>
        <time>2020-06-24T08:04:06Z</time>
      </trkpt>
      <trkpt lat="48.62602" lon="-2.95766">
        <ele>145</ele>
        <time>2020-06-24T08:04:08Z</time>
      </trkpt>
      <trkpt lat="48.62598" lon="-2.9576">
        <ele>145</ele>
        <time>2020-06-24T08:04:10Z</time>
      </trkpt>
      <trkpt lat="48.62595" lon="-2.95754">
        <ele>147</ele>
        <time>2020-06-24T08:04:13Z</time>
      </trkpt>
      <trkpt lat="48.62592" lon="-2.95748">
        <ele>143</ele>
        <time>2020-06-24T08:04:17Z</time>
      </trkpt>
      <trkpt lat="48.6259" lon="-2.95741">
        <ele>146</ele>
        <time>2020-06-24T08:04:20Z</time>
      </trkpt>
      <trkpt lat="48.62586" lon="-2.95735">
        <ele>142</ele>
        <time>2020-06-24T08:04:24Z</time>
      </trkpt>
      <trkpt lat="48.62585" lon="-2.95737">
        <ele>141</ele>
        <time>2020-06-24T08:04:45Z</time>
      </trkpt>
      <trkpt lat="48.62585" lon="-2.95737">
        <ele>144</ele>
        <time>2020-06-24T08:04:47Z</time>
      </trkpt>
      <trkpt lat="48.62581" lon="-2.95731">
        <ele>140</ele>
        <time>2020-06-24T08:04:59Z</time>
      </trkpt>
      <trkpt lat="48.62579" lon="-2.95722">
        <ele>144</ele>
        <time>2020-06-24T08:05:05Z</time>
      </trkpt>
      <trkpt lat="48.62576" lon="-2.95716">
        <ele>145</ele>
        <time>2020-06-24T08:05:08Z</time>
      </trkpt>
      <trkpt lat="48.62574" lon="-2.9571">
        <ele>146</ele>
        <time>2020-06-24T08:05:13Z</time>
      </trkpt>
      <trkpt lat="48.62571" lon="-2.95702">
        <ele>147</ele>
        <time>2020-06-24T08:05:16Z</time>
      </trkpt>
      <trkpt lat="48.6257" lon="-2.95695">
        <ele>146</ele>
        <time>2020-06-24T08:05:19Z</time>
      </trkpt>
      <trkpt lat="48.62568" lon="-2.95687">
        <ele>146</ele>
        <time>2020-06-24T08:05:22Z</time>
      </trkpt>
      <trkpt lat="48.62567" lon="-2.95678">
        <ele>147</ele>
        <time>2020-06-24T08:05:26Z</time>
      </trkpt>
      <trkpt lat="48.62564" lon="-2.95671">
        <ele>146</ele>
        <time>2020-06-24T08:05:30Z</time>
      </trkpt>
      <trkpt lat="48.62563" lon="-2.95664">
        <ele>146</ele>
        <time>2020-06-24T08:05:35Z</time>
      </trkpt>
      <trkpt lat="48.62561" lon="-2.95657">
        <ele>142</ele>
        <time>2020-06-24T08:05:38Z</time>
      </trkpt>
      <trkpt lat="48.6256" lon="-2.9565">
        <ele>142</ele>
        <time>2020-06-24T08:05:42Z</time>
      </trkpt>
      <trkpt lat="48.62557" lon="-2.95642">
        <ele>143</ele>
        <time>2020-06-24T08:05:45Z</time>
      </trkpt>
      <trkpt lat="48.62557" lon="-2.95635">
        <ele>146</ele>
        <time>2020-06-24T08:05:51Z</time>
      </trkpt>
      <trkpt lat="48.62554" lon="-2.95628">
        <ele>144</ele>
        <time>2020-06-24T08:06:10Z</time>
      </trkpt>
      <trkpt lat="48.62553" lon="-2.95621">
        <ele>144</ele>
        <time>2020-06-24T08:06:13Z</time>
      </trkpt>
      <trkpt lat="48.62552" lon="-2.95613">
        <ele>145</ele>
        <time>2020-06-24T08:06:16Z</time>
      </trkpt>
      <trkpt lat="48.62551" lon="-2.95607">
        <ele>141</ele>
        <time>2020-06-24T08:06:20Z</time>
      </trkpt>
      <trkpt lat="48.62551" lon="-2.956">
        <ele>142</ele>
        <time>2020-06-24T08:06:25Z</time>
      </trkpt>
      <trkpt lat="48.62549" lon="-2.95593">
        <ele>144</ele>
        <time>2020-06-24T08:06:30Z</time>
      </trkpt>
      <trkpt lat="48.62547" lon="-2.95584">
        <ele>145</ele>
        <time>2020-06-24T08:06:34Z</time>
      </trkpt>
      <trkpt lat="48.62545" lon="-2.95576">
        <ele>145</ele>
        <time>2020-06-24T08:06:37Z</time>
      </trkpt>
      <trkpt lat="48.62542" lon="-2.95571">
        <ele>144</ele>
        <time>2020-06-24T08:06:40Z</time>
      </trkpt>
      <trkpt lat="48.62538" lon="-2.95564">
        <ele>143</ele>
        <time>2020-06-24T08:06:44Z</time>
      </trkpt>
      <trkpt lat="48.62535" lon="-2.95558">
        <ele>145</ele>
        <time>2020-06-24T08:06:46Z</time>
      </trkpt>
      <trkpt lat="48.62532" lon="-2.95553">
        <ele>148</ele>
        <time>2020-06-24T08:06:48Z</time>
      </trkpt>
      <trkpt lat="48.62534" lon="-2.95546">
        <ele>147</ele>
        <time>2020-06-24T08:06:56Z</time>
      </trkpt>
      <trkpt lat="48.62532" lon="-2.95538">
        <ele>148</ele>
        <time>2020-06-24T08:07:01Z</time>
      </trkpt>
      <trkpt lat="48.62528" lon="-2.95529">
        <ele>147</ele>
        <time>2020-06-24T08:07:07Z</time>
      </trkpt>
      <trkpt lat="48.62524" lon="-2.95522">
        <ele>146</ele>
        <time>2020-06-24T08:07:09Z</time>
      </trkpt>
      <trkpt lat="48.62521" lon="-2.95516">
        <ele>146</ele>
        <time>2020-06-24T08:07:12Z</time>
      </trkpt>
      <trkpt lat="48.6252" lon="-2.95509">
        <ele>150</ele>
        <time>2020-06-24T08:07:15Z</time>
      </trkpt>
      <trkpt lat="48.62519" lon="-2.95501">
        <ele>146</ele>
        <time>2020-06-24T08:07:18Z</time>
      </trkpt>
      <trkpt lat="48.62517" lon="-2.95494">
        <ele>147</ele>
        <time>2020-06-24T08:07:20Z</time>
      </trkpt>
      <trkpt lat="48.62515" lon="-2.95485">
        <ele>145</ele>
        <time>2020-06-24T08:07:23Z</time>
      </trkpt>
      <trkpt lat="48.62512" lon="-2.95478">
        <ele>142</ele>
        <time>2020-06-24T08:07:27Z</time>
      </trkpt>
      <trkpt lat="48.6251" lon="-2.95472">
        <ele>140</ele>
        <time>2020-06-24T08:07:33Z</time>
      </trkpt>
      <trkpt lat="48.62508" lon="-2.95463">
        <ele>141</ele>
        <time>2020-06-24T08:07:37Z</time>
      </trkpt>
      <trkpt lat="48.62507" lon="-2.95456">
        <ele>142</ele>
        <time>2020-06-24T08:07:40Z</time>
      </trkpt>
      <trkpt lat="48.62508" lon="-2.95447">
        <ele>143</ele>
        <time>2020-06-24T08:07:44Z</time>
      </trkpt>
      <trkpt lat="48.62507" lon="-2.9544">
        <ele>142</ele>
        <time>2020-06-24T08:07:46Z</time>
      </trkpt>
      <trkpt lat="48.62506" lon="-2.95432">
        <ele>143</ele>
        <time>2020-06-24T08:07:50Z</time>
      </trkpt>
      <trkpt lat="48.62508" lon="-2.95426">
        <ele>144</ele>
        <time>2020-06-24T08:07:54Z</time>
      </trkpt>
      <trkpt lat="48.62509" lon="-2.95418">
        <ele>146</ele>
        <time>2020-06-24T08:07:58Z</time>
      </trkpt>
      <trkpt lat="48.62507" lon="-2.9541">
        <ele>148</ele>
        <time>2020-06-24T08:08:03Z</time>
      </trkpt>
      <trkpt lat="48.62506" lon="-2.95404">
        <ele>147</ele>
        <time>2020-06-24T08:08:08Z</time>
      </trkpt>
      <trkpt lat="48.62505" lon="-2.95397">
        <ele>148</ele>
        <time>2020-06-24T08:08:11Z</time>
      </trkpt>
      <trkpt lat="48.62502" lon="-2.95389">
        <ele>143</ele>
        <time>2020-06-24T08:08:15Z</time>
      </trkpt>
      <trkpt lat="48.62501" lon="-2.95382">
        <ele>144</ele>
        <time>2020-06-24T08:08:17Z</time>
      </trkpt>
      <trkpt lat="48.62499" lon="-2.95375">
        <ele>143</ele>
        <time>2020-06-24T08:08:21Z</time>
      </trkpt>
      <trkpt lat="48.62497" lon="-2.95366">
        <ele>144</ele>
        <time>2020-06-24T08:08:25Z</time>
      </trkpt>
      <trkpt lat="48.62497" lon="-2.95359">
        <ele>145</ele>
        <time>2020-06-24T08:08:27Z</time>
      </trkpt>
      <trkpt lat="48.62497" lon="-2.95352">
        <ele>146</ele>
        <time>2020-06-24T08:08:30Z</time>
      </trkpt>
      <trkpt lat="48.62495" lon="-2.95343">
        <ele>147</ele>
        <time>2020-06-24T08:08:33Z</time>
      </trkpt>
      <trkpt lat="48.62494" lon="-2.95336">
        <ele>148</ele>
        <time>2020-06-24T08:08:38Z</time>
      </trkpt>
      <trkpt lat="48.62492" lon="-2.95328">
        <ele>149</ele>
        <time>2020-06-24T08:08:41Z</time>
      </trkpt>
      <trkpt lat="48.62489" lon="-2.95322">
        <ele>150</ele>
        <time>2020-06-24T08:08:44Z</time>
      </trkpt>
      <trkpt lat="48.62487" lon="-2.95313">
        <ele>149</ele>
        <time>2020-06-24T08:08:48Z</time>
      </trkpt>
      <trkpt lat="48.62484" lon="-2.95305">
        <ele>148</ele>
        <time>2020-06-24T08:08:51Z</time>
      </trkpt>
      <trkpt lat="48.62481" lon="-2.95299">
        <ele>147</ele>
        <time>2020-06-24T08:08:54Z</time>
      </trkpt>
      <trkpt lat="48.62479" lon="-2.95291">
        <ele>145</ele>
        <time>2020-06-24T08:08:59Z</time>
      </trkpt>
      <trkpt lat="48.62476" lon="-2.95285">
        <ele>145</ele>
        <time>2020-06-24T08:09:02Z</time>
      </trkpt>
      <trkpt lat="48.62474" lon="-2.95278">
        <ele>147</ele>
        <time>2020-06-24T08:09:05Z</time>
      </trkpt>
      <trkpt lat="48.62473" lon="-2.95271">
        <ele>143</ele>
        <time>2020-06-24T08:09:09Z</time>
      </trkpt>
      <trkpt lat="48.62471" lon="-2.95265">
        <ele>142</ele>
        <time>2020-06-24T08:09:13Z</time>
      </trkpt>
      <trkpt lat="48.6247" lon="-2.95257">
        <ele>140</ele>
        <time>2020-06-24T08:09:18Z</time>
      </trkpt>
      <trkpt lat="48.62467" lon="-2.95251">
        <ele>141</ele>
        <time>2020-06-24T08:09:22Z</time>
      </trkpt>
      <trkpt lat="48.62465" lon="-2.95244">
        <ele>140</ele>
        <time>2020-06-24T08:09:30Z</time>
      </trkpt>
      <trkpt lat="48.62462" lon="-2.95238">
        <ele>139</ele>
        <time>2020-06-24T08:09:32Z</time>
      </trkpt>
      <trkpt lat="48.62462" lon="-2.95231">
        <ele>139</ele>
        <time>2020-06-24T08:09:36Z</time>
      </trkpt>
      <trkpt lat="48.6246" lon="-2.95225">
        <ele>140</ele>
        <time>2020-06-24T08:09:40Z</time>
      </trkpt>
      <trkpt lat="48.62457" lon="-2.95218">
        <ele>139</ele>
        <time>2020-06-24T08:09:44Z</time>
      </trkpt>
      <trkpt lat="48.62455" lon="-2.95209">
        <ele>139</ele>
        <time>2020-06-24T08:09:47Z</time>
      </trkpt>
      <trkpt lat="48.62452" lon="-2.95201">
        <ele>140</ele>
        <time>2020-06-24T08:09:50Z</time>
      </trkpt>
      <trkpt lat="48.62452" lon="-2.95193">
        <ele>142</ele>
        <time>2020-06-24T08:09:53Z</time>
      </trkpt>
      <trkpt lat="48.62452" lon="-2.95184">
        <ele>144</ele>
        <time>2020-06-24T08:10:00Z</time>
      </trkpt>
      <trkpt lat="48.62452" lon="-2.95177">
        <ele>146</ele>
        <time>2020-06-24T08:10:06Z</time>
      </trkpt>
      <trkpt lat="48.62448" lon="-2.95171">
        <ele>144</ele>
        <time>2020-06-24T08:10:11Z</time>
      </trkpt>
      <trkpt lat="48.62445" lon="-2.95165">
        <ele>142</ele>
        <time>2020-06-24T08:10:15Z</time>
      </trkpt>
      <trkpt lat="48.62445" lon="-2.95156">
        <ele>142</ele>
        <time>2020-06-24T08:10:21Z</time>
      </trkpt>
      <trkpt lat="48.62441" lon="-2.95151">
        <ele>144</ele>
        <time>2020-06-24T08:10:25Z</time>
      </trkpt>
      <trkpt lat="48.62437" lon="-2.95145">
        <ele>146</ele>
        <time>2020-06-24T08:10:29Z</time>
      </trkpt>
      <trkpt lat="48.62434" lon="-2.95139">
        <ele>143</ele>
        <time>2020-06-24T08:10:33Z</time>
      </trkpt>
      <trkpt lat="48.62431" lon="-2.95132">
        <ele>146</ele>
        <time>2020-06-24T08:10:37Z</time>
      </trkpt>
      <trkpt lat="48.62428" lon="-2.95126">
        <ele>147</ele>
        <time>2020-06-24T08:10:40Z</time>
      </trkpt>
      <trkpt lat="48.62425" lon="-2.95118">
        <ele>145</ele>
        <time>2020-06-24T08:10:43Z</time>
      </trkpt>
      <trkpt lat="48.62421" lon="-2.95112">
        <ele>141</ele>
        <time>2020-06-24T08:10:46Z</time>
      </trkpt>
      <trkpt lat="48.62418" lon="-2.95105">
        <ele>143</ele>
        <time>2020-06-24T08:10:49Z</time>
      </trkpt>
      <trkpt lat="48.62415" lon="-2.951">
        <ele>143</ele>
        <time>2020-06-24T08:10:52Z</time>
      </trkpt>
      <trkpt lat="48.62412" lon="-2.95093">
        <ele>140</ele>
        <time>2020-06-24T08:10:56Z</time>
      </trkpt>
      <trkpt lat="48.62406" lon="-2.95086">
        <ele>139</ele>
        <time>2020-06-24T08:10:59Z</time>
      </trkpt>
      <trkpt lat="48.62402" lon="-2.9508">
        <ele>139</ele>
        <time>2020-06-24T08:11:02Z</time>
      </trkpt>
      <trkpt lat="48.62399" lon="-2.95074">
        <ele>138</ele>
        <time>2020-06-24T08:11:07Z</time>
      </trkpt>
      <trkpt lat="48.62395" lon="-2.95069">
        <ele>137</ele>
        <time>2020-06-24T08:11:10Z</time>
      </trkpt>
      <trkpt lat="48.62391" lon="-2.95064">
        <ele>136</ele>
        <time>2020-06-24T08:11:13Z</time>
      </trkpt>
      <trkpt lat="48.62386" lon="-2.95062">
        <ele>134</ele>
        <time>2020-06-24T08:11:16Z</time>
      </trkpt>
      <trkpt lat="48.62382" lon="-2.95056">
        <ele>133</ele>
        <time>2020-06-24T08:11:22Z</time>
      </trkpt>
      <trkpt lat="48.6238" lon="-2.95049">
        <ele>134</ele>
        <time>2020-06-24T08:11:25Z</time>
      </trkpt>
      <trkpt lat="48.62377" lon="-2.95042">
        <ele>137</ele>
        <time>2020-06-24T08:11:28Z</time>
      </trkpt>
      <trkpt lat="48.62372" lon="-2.95037">
        <ele>134</ele>
        <time>2020-06-24T08:11:35Z</time>
      </trkpt>
      <trkpt lat="48.6237" lon="-2.95031">
        <ele>133</ele>
        <time>2020-06-24T08:11:38Z</time>
      </trkpt>
      <trkpt lat="48.62368" lon="-2.95025">
        <ele>136</ele>
        <time>2020-06-24T08:11:41Z</time>
      </trkpt>
      <trkpt lat="48.62367" lon="-2.95017">
        <ele>140</ele>
        <time>2020-06-24T08:11:46Z</time>
      </trkpt>
      <trkpt lat="48.62364" lon="-2.9501">
        <ele>141</ele>
        <time>2020-06-24T08:11:49Z</time>
      </trkpt>
      <trkpt lat="48.62363" lon="-2.95002">
        <ele>143</ele>
        <time>2020-06-24T08:11:51Z</time>
      </trkpt>
      <trkpt lat="48.62362" lon="-2.94995">
        <ele>144</ele>
        <time>2020-06-24T08:11:54Z</time>
      </trkpt>
      <trkpt lat="48.62359" lon="-2.94988">
        <ele>145</ele>
        <time>2020-06-24T08:11:57Z</time>
      </trkpt>
      <trkpt lat="48.62357" lon="-2.9498">
        <ele>145</ele>
        <time>2020-06-24T08:12:01Z</time>
      </trkpt>
      <trkpt lat="48.62354" lon="-2.94975">
        <ele>145</ele>
        <time>2020-06-24T08:12:04Z</time>
      </trkpt>
      <trkpt lat="48.62349" lon="-2.94973">
        <ele>143</ele>
        <time>2020-06-24T08:12:08Z</time>
      </trkpt>
      <trkpt lat="48.62344" lon="-2.94968">
        <ele>142</ele>
        <time>2020-06-24T08:12:12Z</time>
      </trkpt>
      <trkpt lat="48.6234" lon="-2.94962">
        <ele>142</ele>
        <time>2020-06-24T08:12:15Z</time>
      </trkpt>
      <trkpt lat="48.62337" lon="-2.94957">
        <ele>141</ele>
        <time>2020-06-24T08:12:19Z</time>
      </trkpt>
      <trkpt lat="48.62333" lon="-2.94952">
        <ele>140</ele>
        <time>2020-06-24T08:12:23Z</time>
      </trkpt>
      <trkpt lat="48.62329" lon="-2.94948">
        <ele>139</ele>
        <time>2020-06-24T08:12:26Z</time>
      </trkpt>
      <trkpt lat="48.62325" lon="-2.94944">
        <ele>139</ele>
        <time>2020-06-24T08:12:30Z</time>
      </trkpt>
      <trkpt lat="48.62321" lon="-2.94938">
        <ele>139</ele>
        <time>2020-06-24T08:12:34Z</time>
      </trkpt>
      <trkpt lat="48.62318" lon="-2.94934">
        <ele>140</ele>
        <time>2020-06-24T08:12:38Z</time>
      </trkpt>
      <trkpt lat="48.62316" lon="-2.94927">
        <ele>141</ele>
        <time>2020-06-24T08:12:41Z</time>
      </trkpt>
      <trkpt lat="48.62314" lon="-2.94921">
        <ele>142</ele>
        <time>2020-06-24T08:12:44Z</time>
      </trkpt>
      <trkpt lat="48.62312" lon="-2.94914">
        <ele>141</ele>
        <time>2020-06-24T08:12:48Z</time>
      </trkpt>
      <trkpt lat="48.62307" lon="-2.94913">
        <ele>141</ele>
        <time>2020-06-24T08:12:51Z</time>
      </trkpt>
      <trkpt lat="48.62302" lon="-2.94913">
        <ele>139</ele>
        <time>2020-06-24T08:12:55Z</time>
      </trkpt>
      <trkpt lat="48.62297" lon="-2.94917">
        <ele>140</ele>
        <time>2020-06-24T08:12:59Z</time>
      </trkpt>
      <trkpt lat="48.62294" lon="-2.94922">
        <ele>143</ele>
        <time>2020-06-24T08:13:04Z</time>
      </trkpt>
      <trkpt lat="48.6229" lon="-2.94926">
        <ele>144</ele>
        <time>2020-06-24T08:13:08Z</time>
      </trkpt>
      <trkpt lat="48.62286" lon="-2.94932">
        <ele>142</ele>
        <time>2020-06-24T08:13:14Z</time>
      </trkpt>
      <trkpt lat="48.6228" lon="-2.94934">
        <ele>139</ele>
        <time>2020-06-24T08:13:17Z</time>
      </trkpt>
      <trkpt lat="48.62275" lon="-2.94937">
        <ele>141</ele>
        <time>2020-06-24T08:13:22Z</time>
      </trkpt>
      <trkpt lat="48.6227" lon="-2.94938">
        <ele>143</ele>
        <time>2020-06-24T08:13:25Z</time>
      </trkpt>
      <trkpt lat="48.62266" lon="-2.94943">
        <ele>149</ele>
        <time>2020-06-24T08:13:29Z</time>
      </trkpt>
      <trkpt lat="48.62261" lon="-2.94948">
        <ele>146</ele>
        <time>2020-06-24T08:13:34Z</time>
      </trkpt>
      <trkpt lat="48.62257" lon="-2.94953">
        <ele>146</ele>
        <time>2020-06-24T08:13:37Z</time>
      </trkpt>
      <trkpt lat="48.62252" lon="-2.94959">
        <ele>150</ele>
        <time>2020-06-24T08:13:40Z</time>
      </trkpt>
      <trkpt lat="48.6225" lon="-2.94967">
        <ele>151</ele>
        <time>2020-06-24T08:13:44Z</time>
      </trkpt>
      <trkpt lat="48.62249" lon="-2.94974">
        <ele>151</ele>
        <time>2020-06-24T08:13:49Z</time>
      </trkpt>
      <trkpt lat="48.62247" lon="-2.94981">
        <ele>150</ele>
        <time>2020-06-24T08:13:54Z</time>
      </trkpt>
      <trkpt lat="48.62243" lon="-2.94988">
        <ele>151</ele>
        <time>2020-06-24T08:13:57Z</time>
      </trkpt>
      <trkpt lat="48.62239" lon="-2.9499">
        <ele>152</ele>
        <time>2020-06-24T08:13:59Z</time>
      </trkpt>
      <trkpt lat="48.62235" lon="-2.94995">
        <ele>152</ele>
        <time>2020-06-24T08:14:02Z</time>
      </trkpt>
      <trkpt lat="48.6223" lon="-2.94998">
        <ele>151</ele>
        <time>2020-06-24T08:14:06Z</time>
      </trkpt>
      <trkpt lat="48.62227" lon="-2.95003">
        <ele>152</ele>
        <time>2020-06-24T08:14:09Z</time>
      </trkpt>
      <trkpt lat="48.62224" lon="-2.95009">
        <ele>151</ele>
        <time>2020-06-24T08:14:13Z</time>
      </trkpt>
      <trkpt lat="48.62221" lon="-2.95012">
        <ele>151</ele>
        <time>2020-06-24T08:14:30Z</time>
      </trkpt>
      <trkpt lat="48.62221" lon="-2.95012">
        <ele>151</ele>
        <time>2020-06-24T08:14:32Z</time>
      </trkpt>
      <trkpt lat="48.62217" lon="-2.95016">
        <ele>150</ele>
        <time>2020-06-24T08:14:45Z</time>
      </trkpt>
      <trkpt lat="48.62212" lon="-2.95019">
        <ele>147</ele>
        <time>2020-06-24T08:14:49Z</time>
      </trkpt>
      <trkpt lat="48.62208" lon="-2.95023">
        <ele>149</ele>
        <time>2020-06-24T08:14:52Z</time>
      </trkpt>
      <trkpt lat="48.62204" lon="-2.95027">
        <ele>148</ele>
        <time>2020-06-24T08:14:55Z</time>
      </trkpt>
      <trkpt lat="48.62199" lon="-2.95033">
        <ele>148</ele>
        <time>2020-06-24T08:14:58Z</time>
      </trkpt>
      <trkpt lat="48.62195" lon="-2.95037">
        <ele>148</ele>
        <time>2020-06-24T08:15:00Z</time>
      </trkpt>
      <trkpt lat="48.6219" lon="-2.95041">
        <ele>149</ele>
        <time>2020-06-24T08:15:03Z</time>
      </trkpt>
      <trkpt lat="48.62186" lon="-2.95044">
        <ele>149</ele>
        <time>2020-06-24T08:15:07Z</time>
      </trkpt>
      <trkpt lat="48.62182" lon="-2.95049">
        <ele>147</ele>
        <time>2020-06-24T08:15:10Z</time>
      </trkpt>
      <trkpt lat="48.62178" lon="-2.95055">
        <ele>145</ele>
        <time>2020-06-24T08:15:13Z</time>
      </trkpt>
      <trkpt lat="48.62174" lon="-2.95059">
        <ele>145</ele>
        <time>2020-06-24T08:15:15Z</time>
      </trkpt>
      <trkpt lat="48.62169" lon="-2.95062">
        <ele>145</ele>
        <time>2020-06-24T08:15:19Z</time>
      </trkpt>
      <trkpt lat="48.62165" lon="-2.95066">
        <ele>143</ele>
        <time>2020-06-24T08:15:24Z</time>
      </trkpt>
      <trkpt lat="48.6216" lon="-2.95071">
        <ele>143</ele>
        <time>2020-06-24T08:15:28Z</time>
      </trkpt>
      <trkpt lat="48.62155" lon="-2.95073">
        <ele>144</ele>
        <time>2020-06-24T08:15:34Z</time>
      </trkpt>
      <trkpt lat="48.6215" lon="-2.95071">
        <ele>145</ele>
        <time>2020-06-24T08:15:38Z</time>
      </trkpt>
      <trkpt lat="48.62145" lon="-2.95072">
        <ele>147</ele>
        <time>2020-06-24T08:15:43Z</time>
      </trkpt>
      <trkpt lat="48.6214" lon="-2.9507">
        <ele>146</ele>
        <time>2020-06-24T08:15:48Z</time>
      </trkpt>
      <trkpt lat="48.62135" lon="-2.95069">
        <ele>147</ele>
        <time>2020-06-24T08:15:52Z</time>
      </trkpt>
      <trkpt lat="48.62131" lon="-2.95071">
        <ele>146</ele>
        <time>2020-06-24T08:15:55Z</time>
      </trkpt>
      <trkpt lat="48.62125" lon="-2.95071">
        <ele>144</ele>
        <time>2020-06-24T08:16:08Z</time>
      </trkpt>
      <trkpt lat="48.62119" lon="-2.95072">
        <ele>141</ele>
        <time>2020-06-24T08:16:11Z</time>
      </trkpt>
      <trkpt lat="48.62112" lon="-2.95074">
        <ele>140</ele>
        <time>2020-06-24T08:16:14Z</time>
      </trkpt>
      <trkpt lat="48.62108" lon="-2.95076">
        <ele>140</ele>
        <time>2020-06-24T08:16:16Z</time>
      </trkpt>
      <trkpt lat="48.62103" lon="-2.95078">
        <ele>140</ele>
        <time>2020-06-24T08:16:19Z</time>
      </trkpt>
      <trkpt lat="48.62096" lon="-2.95079">
        <ele>140</ele>
        <time>2020-06-24T08:16:23Z</time>
      </trkpt>
      <trkpt lat="48.6209" lon="-2.9508">
        <ele>140</ele>
        <time>2020-06-24T08:16:25Z</time>
      </trkpt>
      <trkpt lat="48.62087" lon="-2.95084">
        <ele>140</ele>
        <time>2020-06-24T08:16:29Z</time>
      </trkpt>
      <trkpt lat="48.62082" lon="-2.95086">
        <ele>141</ele>
        <time>2020-06-24T08:16:33Z</time>
      </trkpt>
      <trkpt lat="48.62076" lon="-2.95091">
        <ele>141</ele>
        <time>2020-06-24T08:16:37Z</time>
      </trkpt>
      <trkpt lat="48.62071" lon="-2.95094">
        <ele>139</ele>
        <time>2020-06-24T08:16:40Z</time>
      </trkpt>
      <trkpt lat="48.62066" lon="-2.951">
        <ele>139</ele>
        <time>2020-06-24T08:16:46Z</time>
      </trkpt>
      <trkpt lat="48.62061" lon="-2.95105">
        <ele>140</ele>
        <time>2020-06-24T08:16:49Z</time>
      </trkpt>
      <trkpt lat="48.62058" lon="-2.95111">
        <ele>139</ele>
        <time>2020-06-24T08:16:52Z</time>
      </trkpt>
      <trkpt lat="48.62052" lon="-2.95114">
        <ele>141</ele>
        <time>2020-06-24T08:17:14Z</time>
      </trkpt>
      <trkpt lat="48.62047" lon="-2.95117">
        <ele>142</ele>
        <time>2020-06-24T08:17:16Z</time>
      </trkpt>
      <trkpt lat="48.62043" lon="-2.95121">
        <ele>141</ele>
        <time>2020-06-24T08:17:19Z</time>
      </trkpt>
      <trkpt lat="48.6204" lon="-2.95127">
        <ele>141</ele>
        <time>2020-06-24T08:17:22Z</time>
      </trkpt>
      <trkpt lat="48.62035" lon="-2.95132">
        <ele>144</ele>
        <time>2020-06-24T08:17:25Z</time>
      </trkpt>
      <trkpt lat="48.6203" lon="-2.95136">
        <ele>145</ele>
        <time>2020-06-24T08:17:28Z</time>
      </trkpt>
      <trkpt lat="48.62026" lon="-2.95141">
        <ele>146</ele>
        <time>2020-06-24T08:17:31Z</time>
      </trkpt>
      <trkpt lat="48.62022" lon="-2.95147">
        <ele>145</ele>
        <time>2020-06-24T08:17:34Z</time>
      </trkpt>
      <trkpt lat="48.62019" lon="-2.95152">
        <ele>147</ele>
        <time>2020-06-24T08:17:38Z</time>
      </trkpt>
      <trkpt lat="48.62015" lon="-2.95157">
        <ele>146</ele>
        <time>2020-06-24T08:17:41Z</time>
      </trkpt>
      <trkpt lat="48.62012" lon="-2.95163">
        <ele>146</ele>
        <time>2020-06-24T08:17:46Z</time>
      </trkpt>
      <trkpt lat="48.62008" lon="-2.95168">
        <ele>145</ele>
        <time>2020-06-24T08:17:50Z</time>
      </trkpt>
      <trkpt lat="48.62003" lon="-2.95172">
        <ele>146</ele>
        <time>2020-06-24T08:17:53Z</time>
      </trkpt>
      <trkpt lat="48.61999" lon="-2.95174">
        <ele>147</ele>
        <time>2020-06-24T08:17:56Z</time>
      </trkpt>
      <trkpt lat="48.61994" lon="-2.95177">
        <ele>146</ele>
        <time>2020-06-24T08:17:59Z</time>
      </trkpt>
      <trkpt lat="48.61989" lon="-2.95179">
        <ele>147</ele>
        <time>2020-06-24T08:18:01Z</time>
      </trkpt>
      <trkpt lat="48.61984" lon="-2.95182">
        <ele>149</ele>
        <time>2020-06-24T08:18:04Z</time>
      </trkpt>
      <trkpt lat="48.61979" lon="-2.95184">
        <ele>149</ele>
        <time>2020-06-24T08:18:08Z</time>
      </trkpt>
      <trkpt lat="48.61975" lon="-2.95187">
        <ele>146</ele>
        <time>2020-06-24T08:18:11Z</time>
      </trkpt>
      <trkpt lat="48.61972" lon="-2.95193">
        <ele>147</ele>
        <time>2020-06-24T08:18:15Z</time>
      </trkpt>
      <trkpt lat="48.61969" lon="-2.95197">
        <ele>150</ele>
        <time>2020-06-24T08:18:20Z</time>
      </trkpt>
      <trkpt lat="48.61964" lon="-2.95199">
        <ele>151</ele>
        <time>2020-06-24T08:18:23Z</time>
      </trkpt>
      <trkpt lat="48.6196" lon="-2.95203">
        <ele>148</ele>
        <time>2020-06-24T08:18:36Z</time>
      </trkpt>
      <trkpt lat="48.61956" lon="-2.95208">
        <ele>149</ele>
        <time>2020-06-24T08:18:40Z</time>
      </trkpt>
      <trkpt lat="48.61952" lon="-2.95214">
        <ele>149</ele>
        <time>2020-06-24T08:18:44Z</time>
      </trkpt>
      <trkpt lat="48.61949" lon="-2.9522">
        <ele>151</ele>
        <time>2020-06-24T08:18:47Z</time>
      </trkpt>
      <trkpt lat="48.61945" lon="-2.95226">
        <ele>152</ele>
        <time>2020-06-24T08:18:52Z</time>
      </trkpt>
      <trkpt lat="48.6194" lon="-2.95226">
        <ele>153</ele>
        <time>2020-06-24T08:18:57Z</time>
      </trkpt>
      <trkpt lat="48.61936" lon="-2.95229">
        <ele>152</ele>
        <time>2020-06-24T08:19:00Z</time>
      </trkpt>
      <trkpt lat="48.6193" lon="-2.95231">
        <ele>152</ele>
        <time>2020-06-24T08:19:04Z</time>
      </trkpt>
      <trkpt lat="48.61926" lon="-2.95231">
        <ele>151</ele>
        <time>2020-06-24T08:19:08Z</time>
      </trkpt>
      <trkpt lat="48.61921" lon="-2.95234">
        <ele>153</ele>
        <time>2020-06-24T08:19:11Z</time>
      </trkpt>
      <trkpt lat="48.61915" lon="-2.95239">
        <ele>154</ele>
        <time>2020-06-24T08:19:14Z</time>
      </trkpt>
      <trkpt lat="48.61911" lon="-2.95243">
        <ele>154</ele>
        <time>2020-06-24T08:19:17Z</time>
      </trkpt>
      <trkpt lat="48.61908" lon="-2.95247">
        <ele>154</ele>
        <time>2020-06-24T08:19:21Z</time>
      </trkpt>
      <trkpt lat="48.61902" lon="-2.9525">
        <ele>153</ele>
        <time>2020-06-24T08:19:24Z</time>
      </trkpt>
      <trkpt lat="48.61898" lon="-2.95256">
        <ele>153</ele>
        <time>2020-06-24T08:19:28Z</time>
      </trkpt>
      <trkpt lat="48.61893" lon="-2.9526">
        <ele>155</ele>
        <time>2020-06-24T08:19:32Z</time>
      </trkpt>
      <trkpt lat="48.61888" lon="-2.95261">
        <ele>154</ele>
        <time>2020-06-24T08:19:35Z</time>
      </trkpt>
      <trkpt lat="48.61883" lon="-2.95263">
        <ele>153</ele>
        <time>2020-06-24T08:19:39Z</time>
      </trkpt>
      <trkpt lat="48.61878" lon="-2.95266">
        <ele>154</ele>
        <time>2020-06-24T08:19:43Z</time>
      </trkpt>
      <trkpt lat="48.61873" lon="-2.95269">
        <ele>153</ele>
        <time>2020-06-24T08:19:47Z</time>
      </trkpt>
      <trkpt lat="48.61868" lon="-2.95273">
        <ele>153</ele>
        <time>2020-06-24T08:19:50Z</time>
      </trkpt>
      <trkpt lat="48.61863" lon="-2.95277">
        <ele>153</ele>
        <time>2020-06-24T08:19:53Z</time>
      </trkpt>
      <trkpt lat="48.61858" lon="-2.9528">
        <ele>151</ele>
        <time>2020-06-24T08:19:57Z</time>
      </trkpt>
      <trkpt lat="48.61853" lon="-2.95282">
        <ele>154</ele>
        <time>2020-06-24T08:20:00Z</time>
      </trkpt>
      <trkpt lat="48.61849" lon="-2.95286">
        <ele>156</ele>
        <time>2020-06-24T08:20:03Z</time>
      </trkpt>
      <trkpt lat="48.61845" lon="-2.95291">
        <ele>156</ele>
        <time>2020-06-24T08:20:13Z</time>
      </trkpt>
      <trkpt lat="48.6184" lon="-2.95296">
        <ele>155</ele>
        <time>2020-06-24T08:20:18Z</time>
      </trkpt>
      <trkpt lat="48.61835" lon="-2.95299">
        <ele>153</ele>
        <time>2020-06-24T08:20:22Z</time>
      </trkpt>
      <trkpt lat="48.6183" lon="-2.95303">
        <ele>152</ele>
        <time>2020-06-24T08:20:26Z</time>
      </trkpt>
      <trkpt lat="48.61825" lon="-2.95305">
        <ele>153</ele>
        <time>2020-06-24T08:20:31Z</time>
      </trkpt>
      <trkpt lat="48.61821" lon="-2.95308">
        <ele>154</ele>
        <time>2020-06-24T08:20:34Z</time>
      </trkpt>
      <trkpt lat="48.61817" lon="-2.95312">
        <ele>155</ele>
        <time>2020-06-24T08:20:37Z</time>
      </trkpt>
      <trkpt lat="48.61814" lon="-2.95318">
        <ele>155</ele>
        <time>2020-06-24T08:20:41Z</time>
      </trkpt>
      <trkpt lat="48.6181" lon="-2.95322">
        <ele>154</ele>
        <time>2020-06-24T08:20:46Z</time>
      </trkpt>
      <trkpt lat="48.61803" lon="-2.95323">
        <ele>154</ele>
        <time>2020-06-24T08:20:49Z</time>
      </trkpt>
      <trkpt lat="48.61797" lon="-2.95324">
        <ele>156</ele>
        <time>2020-06-24T08:20:52Z</time>
      </trkpt>
      <trkpt lat="48.61793" lon="-2.95328">
        <ele>155</ele>
        <time>2020-06-24T08:20:57Z</time>
      </trkpt>
      <trkpt lat="48.61788" lon="-2.95329">
        <ele>156</ele>
        <time>2020-06-24T08:21:00Z</time>
      </trkpt>
      <trkpt lat="48.61783" lon="-2.95329">
        <ele>156</ele>
        <time>2020-06-24T08:21:03Z</time>
      </trkpt>
      <trkpt lat="48.61778" lon="-2.9533">
        <ele>155</ele>
        <time>2020-06-24T08:21:09Z</time>
      </trkpt>
      <trkpt lat="48.61773" lon="-2.95333">
        <ele>155</ele>
        <time>2020-06-24T08:21:12Z</time>
      </trkpt>
      <trkpt lat="48.61768" lon="-2.95336">
        <ele>154</ele>
        <time>2020-06-24T08:21:15Z</time>
      </trkpt>
      <trkpt lat="48.61762" lon="-2.95338">
        <ele>154</ele>
        <time>2020-06-24T08:21:18Z</time>
      </trkpt>
      <trkpt lat="48.61757" lon="-2.9534">
        <ele>151</ele>
        <time>2020-06-24T08:21:23Z</time>
      </trkpt>
      <trkpt lat="48.61753" lon="-2.95347">
        <ele>149</ele>
        <time>2020-06-24T08:21:28Z</time>
      </trkpt>
      <trkpt lat="48.61749" lon="-2.9535">
        <ele>150</ele>
        <time>2020-06-24T08:21:31Z</time>
      </trkpt>
      <trkpt lat="48.61746" lon="-2.95357">
        <ele>150</ele>
        <time>2020-06-24T08:21:35Z</time>
      </trkpt>
      <trkpt lat="48.61742" lon="-2.95361">
        <ele>149</ele>
        <time>2020-06-24T08:21:38Z</time>
      </trkpt>
      <trkpt lat="48.61738" lon="-2.95365">
        <ele>149</ele>
        <time>2020-06-24T08:21:48Z</time>
      </trkpt>
      <trkpt lat="48.61734" lon="-2.95368">
        <ele>150</ele>
        <time>2020-06-24T08:21:52Z</time>
      </trkpt>
      <trkpt lat="48.61729" lon="-2.9537">
        <ele>152</ele>
        <time>2020-06-24T08:21:55Z</time>
      </trkpt>
      <trkpt lat="48.61725" lon="-2.95374">
        <ele>152</ele>
        <time>2020-06-24T08:22:00Z</time>
      </trkpt>
      <trkpt lat="48.6172" lon="-2.95377">
        <ele>154</ele>
        <time>2020-06-24T08:22:03Z</time>
      </trkpt>
      <trkpt lat="48.61717" lon="-2.95381">
        <ele>153</ele>
        <time>2020-06-24T08:22:06Z</time>
      </trkpt>
      <trkpt lat="48.61714" lon="-2.95387">
        <ele>155</ele>
        <time>2020-06-24T08:22:09Z</time>
      </trkpt>
      <trkpt lat="48.6171" lon="-2.95392">
        <ele>153</ele>
        <time>2020-06-24T08:22:12Z</time>
      </trkpt>
      <trkpt lat="48.61706" lon="-2.95396">
        <ele>151</ele>
        <time>2020-06-24T08:22:16Z</time>
      </trkpt>
      <trkpt lat="48.61702" lon="-2.95403">
        <ele>154</ele>
        <time>2020-06-24T08:22:21Z</time>
      </trkpt>
      <trkpt lat="48.61698" lon="-2.95408">
        <ele>153</ele>
        <time>2020-06-24T08:22:24Z</time>
      </trkpt>
      <trkpt lat="48.61694" lon="-2.95412">
        <ele>152</ele>
        <time>2020-06-24T08:22:28Z</time>
      </trkpt>
      <trkpt lat="48.6169" lon="-2.95417">
        <ele>151</ele>
        <time>2020-06-24T08:22:31Z</time>
      </trkpt>
      <trkpt lat="48.61686" lon="-2.9542">
        <ele>153</ele>
        <time>2020-06-24T08:22:35Z</time>
      </trkpt>
      <trkpt lat="48.61681" lon="-2.95426">
        <ele>153</ele>
        <time>2020-06-24T08:22:40Z</time>
      </trkpt>
      <trkpt lat="48.61678" lon="-2.95432">
        <ele>153</ele>
        <time>2020-06-24T08:22:44Z</time>
      </trkpt>
      <trkpt lat="48.61675" lon="-2.95439">
        <ele>151</ele>
        <time>2020-06-24T08:22:48Z</time>
      </trkpt>
      <trkpt lat="48.61673" lon="-2.95445">
        <ele>150</ele>
        <time>2020-06-24T08:22:53Z</time>
      </trkpt>
      <trkpt lat="48.61672" lon="-2.95445">
        <ele>150</ele>
        <time>2020-06-24T08:23:15Z</time>
      </trkpt>
      <trkpt lat="48.61673" lon="-2.95446">
        <ele>151</ele>
        <time>2020-06-24T08:23:17Z</time>
      </trkpt>
      <trkpt lat="48.61668" lon="-2.95452">
        <ele>150</ele>
        <time>2020-06-24T08:23:30Z</time>
      </trkpt>
      <trkpt lat="48.61663" lon="-2.95453">
        <ele>147</ele>
        <time>2020-06-24T08:23:35Z</time>
      </trkpt>
      <trkpt lat="48.61659" lon="-2.95456">
        <ele>151</ele>
        <time>2020-06-24T08:23:40Z</time>
      </trkpt>
      <trkpt lat="48.61655" lon="-2.95462">
        <ele>150</ele>
        <time>2020-06-24T08:23:44Z</time>
      </trkpt>
      <trkpt lat="48.61652" lon="-2.95467">
        <ele>151</ele>
        <time>2020-06-24T08:23:47Z</time>
      </trkpt>
      <trkpt lat="48.61648" lon="-2.95471">
        <ele>151</ele>
        <time>2020-06-24T08:23:51Z</time>
      </trkpt>
      <trkpt lat="48.61643" lon="-2.95471">
        <ele>150</ele>
        <time>2020-06-24T08:23:55Z</time>
      </trkpt>
      <trkpt lat="48.61637" lon="-2.95475">
        <ele>150</ele>
        <time>2020-06-24T08:23:59Z</time>
      </trkpt>
      <trkpt lat="48.61633" lon="-2.9548">
        <ele>149</ele>
        <time>2020-06-24T08:24:02Z</time>
      </trkpt>
      <trkpt lat="48.61629" lon="-2.95482">
        <ele>150</ele>
        <time>2020-06-24T08:24:07Z</time>
      </trkpt>
      <trkpt lat="48.61624" lon="-2.95483">
        <ele>151</ele>
        <time>2020-06-24T08:24:11Z</time>
      </trkpt>
      <trkpt lat="48.61619" lon="-2.95485">
        <ele>151</ele>
        <time>2020-06-24T08:24:14Z</time>
      </trkpt>
      <trkpt lat="48.61615" lon="-2.95487">
        <ele>150</ele>
        <time>2020-06-24T08:24:17Z</time>
      </trkpt>
      <trkpt lat="48.61609" lon="-2.95488">
        <ele>152</ele>
        <time>2020-06-24T08:24:22Z</time>
      </trkpt>
      <trkpt lat="48.61604" lon="-2.95493">
        <ele>148</ele>
        <time>2020-06-24T08:24:26Z</time>
      </trkpt>
      <trkpt lat="48.616" lon="-2.95498">
        <ele>149</ele>
        <time>2020-06-24T08:24:29Z</time>
      </trkpt>
      <trkpt lat="48.616" lon="-2.95506">
        <ele>148</ele>
        <time>2020-06-24T08:24:43Z</time>
      </trkpt>
      <trkpt lat="48.61595" lon="-2.95509">
        <ele>147</ele>
        <time>2020-06-24T08:24:49Z</time>
      </trkpt>
      <trkpt lat="48.61591" lon="-2.95509">
        <ele>148</ele>
        <time>2020-06-24T08:24:54Z</time>
      </trkpt>
      <trkpt lat="48.61586" lon="-2.95509">
        <ele>150</ele>
        <time>2020-06-24T08:25:00Z</time>
      </trkpt>
      <trkpt lat="48.61581" lon="-2.95512">
        <ele>149</ele>
        <time>2020-06-24T08:25:03Z</time>
      </trkpt>
      <trkpt lat="48.61577" lon="-2.95515">
        <ele>150</ele>
        <time>2020-06-24T08:25:06Z</time>
      </trkpt>
      <trkpt lat="48.61572" lon="-2.9552">
        <ele>150</ele>
        <time>2020-06-24T08:25:09Z</time>
      </trkpt>
      <trkpt lat="48.61567" lon="-2.95525">
        <ele>150</ele>
        <time>2020-06-24T08:25:12Z</time>
      </trkpt>
      <trkpt lat="48.61564" lon="-2.95529">
        <ele>150</ele>
        <time>2020-06-24T08:25:16Z</time>
      </trkpt>
      <trkpt lat="48.61558" lon="-2.95531">
        <ele>151</ele>
        <time>2020-06-24T08:25:19Z</time>
      </trkpt>
      <trkpt lat="48.61552" lon="-2.95531">
        <ele>153</ele>
        <time>2020-06-24T08:25:22Z</time>
      </trkpt>
      <trkpt lat="48.61548" lon="-2.95532">
        <ele>155</ele>
        <time>2020-06-24T08:25:26Z</time>
      </trkpt>
      <trkpt lat="48.61543" lon="-2.95533">
        <ele>154</ele>
        <time>2020-06-24T08:25:30Z</time>
      </trkpt>
      <trkpt lat="48.61537" lon="-2.95536">
        <ele>154</ele>
        <time>2020-06-24T08:25:34Z</time>
      </trkpt>
      <trkpt lat="48.61533" lon="-2.9554">
        <ele>153</ele>
        <time>2020-06-24T08:25:36Z</time>
      </trkpt>
      <trkpt lat="48.61529" lon="-2.95544">
        <ele>153</ele>
        <time>2020-06-24T08:25:39Z</time>
      </trkpt>
      <trkpt lat="48.61525" lon="-2.95547">
        <ele>152</ele>
        <time>2020-06-24T08:25:42Z</time>
      </trkpt>
      <trkpt lat="48.6152" lon="-2.95548">
        <ele>154</ele>
        <time>2020-06-24T08:25:47Z</time>
      </trkpt>
      <trkpt lat="48.61519" lon="-2.95555">
        <ele>155</ele>
        <time>2020-06-24T08:25:53Z</time>
      </trkpt>
      <trkpt lat="48.61515" lon="-2.95556">
        <ele>154</ele>
        <time>2020-06-24T08:25:57Z</time>
      </trkpt>
      <trkpt lat="48.6151" lon="-2.95558">
        <ele>153</ele>
        <time>2020-06-24T08:26:00Z</time>
      </trkpt>
      <trkpt lat="48.61508" lon="-2.95557">
        <ele>154</ele>
        <time>2020-06-24T08:26:15Z</time>
      </trkpt>
      <trkpt lat="48.61508" lon="-2.95557">
        <ele>154</ele>
        <time>2020-06-24T08:26:17Z</time>
      </trkpt>
      <trkpt lat="48.61503" lon="-2.95562">
        <ele>150</ele>
        <time>2020-06-24T08:26:21Z</time>
      </trkpt>
      <trkpt lat="48.61498" lon="-2.95565">
        <ele>152</ele>
        <time>2020-06-24T08:26:24Z</time>
      </trkpt>
      <trkpt lat="48.61493" lon="-2.95567">
        <ele>153</ele>
        <time>2020-06-24T08:26:27Z</time>
      </trkpt>
      <trkpt lat="48.61488" lon="-2.95568">
        <ele>151</ele>
        <time>2020-06-24T08:26:29Z</time>
      </trkpt>
      <trkpt lat="48.61483" lon="-2.9557">
        <ele>147</ele>
        <time>2020-06-24T08:26:32Z</time>
      </trkpt>
      <trkpt lat="48.61477" lon="-2.95571">
        <ele>147</ele>
        <time>2020-06-24T08:26:35Z</time>
      </trkpt>
      <trkpt lat="48.61471" lon="-2.95571">
        <ele>150</ele>
        <time>2020-06-24T08:26:38Z</time>
      </trkpt>
      <trkpt lat="48.61466" lon="-2.95574">
        <ele>152</ele>
        <time>2020-06-24T08:26:41Z</time>
      </trkpt>
      <trkpt lat="48.61462" lon="-2.95578">
        <ele>150</ele>
        <time>2020-06-24T08:26:44Z</time>
      </trkpt>
      <trkpt lat="48.61459" lon="-2.95582">
        <ele>149</ele>
        <time>2020-06-24T08:26:47Z</time>
      </trkpt>
      <trkpt lat="48.61454" lon="-2.95587">
        <ele>150</ele>
        <time>2020-06-24T08:26:51Z</time>
      </trkpt>
      <trkpt lat="48.61449" lon="-2.9559">
        <ele>153</ele>
        <time>2020-06-24T08:26:54Z</time>
      </trkpt>
      <trkpt lat="48.61444" lon="-2.95593">
        <ele>153</ele>
        <time>2020-06-24T08:26:57Z</time>
      </trkpt>
      <trkpt lat="48.6144" lon="-2.95597">
        <ele>153</ele>
        <time>2020-06-24T08:27:02Z</time>
      </trkpt>
      <trkpt lat="48.61437" lon="-2.95602">
        <ele>151</ele>
        <time>2020-06-24T08:27:07Z</time>
      </trkpt>
      <trkpt lat="48.61432" lon="-2.95604">
        <ele>154</ele>
        <time>2020-06-24T08:27:11Z</time>
      </trkpt>
      <trkpt lat="48.61427" lon="-2.95605">
        <ele>154</ele>
        <time>2020-06-24T08:27:17Z</time>
      </trkpt>
      <trkpt lat="48.61422" lon="-2.95607">
        <ele>155</ele>
        <time>2020-06-24T08:27:26Z</time>
      </trkpt>
      <trkpt lat="48.61416" lon="-2.9561">
        <ele>156</ele>
        <time>2020-06-24T08:27:29Z</time>
      </trkpt>
      <trkpt lat="48.61411" lon="-2.95614">
        <ele>159</ele>
        <time>2020-06-24T08:27:31Z</time>
      </trkpt>
      <trkpt lat="48.61404" lon="-2.95618">
        <ele>158</ele>
        <time>2020-06-24T08:27:33Z</time>
      </trkpt>
      <trkpt lat="48.61397" lon="-2.95623">
        <ele>158</ele>
        <time>2020-06-24T08:27:35Z</time>
      </trkpt>
      <trkpt lat="48.61391" lon="-2.95627">
        <ele>160</ele>
        <time>2020-06-24T08:27:38Z</time>
      </trkpt>
      <trkpt lat="48.61387" lon="-2.95633">
        <ele>162</ele>
        <time>2020-06-24T08:27:41Z</time>
      </trkpt>
      <trkpt lat="48.61383" lon="-2.95638">
        <ele>160</ele>
        <time>2020-06-24T08:27:44Z</time>
      </trkpt>
      <trkpt lat="48.61382" lon="-2.95645">
        <ele>158</ele>
        <time>2020-06-24T08:27:49Z</time>
      </trkpt>
      <trkpt lat="48.61378" lon="-2.95651">
        <ele>156</ele>
        <time>2020-06-24T08:27:54Z</time>
      </trkpt>
      <trkpt lat="48.61374" lon="-2.95656">
        <ele>160</ele>
        <time>2020-06-24T08:27:59Z</time>
      </trkpt>
      <trkpt lat="48.6137" lon="-2.9566">
        <ele>160</ele>
        <time>2020-06-24T08:28:02Z</time>
      </trkpt>
      <trkpt lat="48.61364" lon="-2.95666">
        <ele>162</ele>
        <time>2020-06-24T08:28:05Z</time>
      </trkpt>
      <trkpt lat="48.61359" lon="-2.95668">
        <ele>164</ele>
        <time>2020-06-24T08:28:08Z</time>
      </trkpt>
      <trkpt lat="48.61355" lon="-2.95671">
        <ele>164</ele>
        <time>2020-06-24T08:28:11Z</time>
      </trkpt>
      <trkpt lat="48.61351" lon="-2.95674">
        <ele>162</ele>
        <time>2020-06-24T08:28:14Z</time>
      </trkpt>
      <trkpt lat="48.61346" lon="-2.95678">
        <ele>163</ele>
        <time>2020-06-24T08:28:18Z</time>
      </trkpt>
      <trkpt lat="48.61341" lon="-2.9568">
        <ele>164</ele>
        <time>2020-06-24T08:28:22Z</time>
      </trkpt>
      <trkpt lat="48.61336" lon="-2.95683">
        <ele>163</ele>
        <time>2020-06-24T08:28:26Z</time>
      </trkpt>
      <trkpt lat="48.61332" lon="-2.95688">
        <ele>164</ele>
        <time>2020-06-24T08:28:33Z</time>
      </trkpt>
      <trkpt lat="48.61328" lon="-2.95691">
        <ele>164</ele>
        <time>2020-06-24T08:28:44Z</time>
      </trkpt>
      <trkpt lat="48.61323" lon="-2.95697">
        <ele>163</ele>
        <time>2020-06-24T08:28:47Z</time>
      </trkpt>
      <trkpt lat="48.61318" lon="-2.95699">
        <ele>163</ele>
        <time>2020-06-24T08:28:50Z</time>
      </trkpt>
      <trkpt lat="48.61312" lon="-2.95702">
        <ele>162</ele>
        <time>2020-06-24T08:28:53Z</time>
      </trkpt>
      <trkpt lat="48.61306" lon="-2.95705">
        <ele>163</ele>
        <time>2020-06-24T08:28:56Z</time>
      </trkpt>
      <trkpt lat="48.61302" lon="-2.95708">
        <ele>164</ele>
        <time>2020-06-24T08:28:59Z</time>
      </trkpt>
      <trkpt lat="48.61297" lon="-2.95712">
        <ele>167</ele>
        <time>2020-06-24T08:29:03Z</time>
      </trkpt>
      <trkpt lat="48.61293" lon="-2.95719">
        <ele>166</ele>
        <time>2020-06-24T08:29:08Z</time>
      </trkpt>
      <trkpt lat="48.6129" lon="-2.95725">
        <ele>166</ele>
        <time>2020-06-24T08:29:10Z</time>
      </trkpt>
      <trkpt lat="48.61287" lon="-2.95731">
        <ele>159</ele>
        <time>2020-06-24T08:29:13Z</time>
      </trkpt>
      <trkpt lat="48.61284" lon="-2.95736">
        <ele>168</ele>
        <time>2020-06-24T08:29:30Z</time>
      </trkpt>
      <trkpt lat="48.6128" lon="-2.95741">
        <ele>174</ele>
        <time>2020-06-24T08:29:32Z</time>
      </trkpt>
      <trkpt lat="48.61284" lon="-2.95736">
        <ele>159</ele>
        <time>2020-06-24T08:29:33Z</time>
      </trkpt>
      <trkpt lat="48.61279" lon="-2.95739">
        <ele>165</ele>
        <time>2020-06-24T08:29:43Z</time>
      </trkpt>
      <trkpt lat="48.61276" lon="-2.95745">
        <ele>163</ele>
        <time>2020-06-24T08:29:45Z</time>
      </trkpt>
      <trkpt lat="48.61272" lon="-2.95752">
        <ele>165</ele>
        <time>2020-06-24T08:29:47Z</time>
      </trkpt>
      <trkpt lat="48.61268" lon="-2.95757">
        <ele>164</ele>
        <time>2020-06-24T08:29:49Z</time>
      </trkpt>
      <trkpt lat="48.61262" lon="-2.95762">
        <ele>161</ele>
        <time>2020-06-24T08:29:52Z</time>
      </trkpt>
      <trkpt lat="48.61258" lon="-2.95764">
        <ele>161</ele>
        <time>2020-06-24T08:29:54Z</time>
      </trkpt>
      <trkpt lat="48.61253" lon="-2.95768">
        <ele>159</ele>
        <time>2020-06-24T08:29:57Z</time>
      </trkpt>
      <trkpt lat="48.61249" lon="-2.95773">
        <ele>159</ele>
        <time>2020-06-24T08:30:02Z</time>
      </trkpt>
      <trkpt lat="48.61245" lon="-2.95778">
        <ele>165</ele>
        <time>2020-06-24T08:30:06Z</time>
      </trkpt>
      <trkpt lat="48.61241" lon="-2.95784">
        <ele>165</ele>
        <time>2020-06-24T08:30:10Z</time>
      </trkpt>
      <trkpt lat="48.61237" lon="-2.95789">
        <ele>161</ele>
        <time>2020-06-24T08:30:13Z</time>
      </trkpt>
      <trkpt lat="48.61231" lon="-2.95791">
        <ele>162</ele>
        <time>2020-06-24T08:30:16Z</time>
      </trkpt>
      <trkpt lat="48.61227" lon="-2.95796">
        <ele>167</ele>
        <time>2020-06-24T08:30:20Z</time>
      </trkpt>
      <trkpt lat="48.61223" lon="-2.958">
        <ele>168</ele>
        <time>2020-06-24T08:30:23Z</time>
      </trkpt>
      <trkpt lat="48.61219" lon="-2.95805">
        <ele>168</ele>
        <time>2020-06-24T08:30:27Z</time>
      </trkpt>
      <trkpt lat="48.61215" lon="-2.9581">
        <ele>167</ele>
        <time>2020-06-24T08:30:30Z</time>
      </trkpt>
      <trkpt lat="48.61214" lon="-2.95818">
        <ele>163</ele>
        <time>2020-06-24T08:30:34Z</time>
      </trkpt>
      <trkpt lat="48.61211" lon="-2.95824">
        <ele>159</ele>
        <time>2020-06-24T08:30:37Z</time>
      </trkpt>
      <trkpt lat="48.61209" lon="-2.9583">
        <ele>160</ele>
        <time>2020-06-24T08:30:40Z</time>
      </trkpt>
      <trkpt lat="48.61205" lon="-2.95835">
        <ele>158</ele>
        <time>2020-06-24T08:30:43Z</time>
      </trkpt>
      <trkpt lat="48.61203" lon="-2.95843">
        <ele>155</ele>
        <time>2020-06-24T08:30:48Z</time>
      </trkpt>
      <trkpt lat="48.612" lon="-2.95847">
        <ele>155</ele>
        <time>2020-06-24T08:30:51Z</time>
      </trkpt>
      <trkpt lat="48.61196" lon="-2.95852">
        <ele>155</ele>
        <time>2020-06-24T08:30:57Z</time>
      </trkpt>
      <trkpt lat="48.61193" lon="-2.95856">
        <ele>156</ele>
        <time>2020-06-24T08:31:01Z</time>
      </trkpt>
      <trkpt lat="48.61189" lon="-2.95863">
        <ele>156</ele>
        <time>2020-06-24T08:31:04Z</time>
      </trkpt>
      <trkpt lat="48.61184" lon="-2.95868">
        <ele>157</ele>
        <time>2020-06-24T08:31:08Z</time>
      </trkpt>
      <trkpt lat="48.6118" lon="-2.95871">
        <ele>158</ele>
        <time>2020-06-24T08:31:12Z</time>
      </trkpt>
      <trkpt lat="48.61178" lon="-2.95878">
        <ele>156</ele>
        <time>2020-06-24T08:31:15Z</time>
      </trkpt>
      <trkpt lat="48.61176" lon="-2.95885">
        <ele>156</ele>
        <time>2020-06-24T08:31:19Z</time>
      </trkpt>
      <trkpt lat="48.61171" lon="-2.95891">
        <ele>159</ele>
        <time>2020-06-24T08:31:24Z</time>
      </trkpt>
      <trkpt lat="48.61166" lon="-2.95897">
        <ele>160</ele>
        <time>2020-06-24T08:31:27Z</time>
      </trkpt>
      <trkpt lat="48.61162" lon="-2.95902">
        <ele>159</ele>
        <time>2020-06-24T08:31:30Z</time>
      </trkpt>
      <trkpt lat="48.61158" lon="-2.95908">
        <ele>158</ele>
        <time>2020-06-24T08:31:33Z</time>
      </trkpt>
      <trkpt lat="48.61153" lon="-2.95914">
        <ele>158</ele>
        <time>2020-06-24T08:31:38Z</time>
      </trkpt>
      <trkpt lat="48.61149" lon="-2.95916">
        <ele>156</ele>
        <time>2020-06-24T08:31:48Z</time>
      </trkpt>
      <trkpt lat="48.61144" lon="-2.9592">
        <ele>155</ele>
        <time>2020-06-24T08:31:51Z</time>
      </trkpt>
      <trkpt lat="48.61142" lon="-2.95926">
        <ele>151</ele>
        <time>2020-06-24T08:31:55Z</time>
      </trkpt>
      <trkpt lat="48.61139" lon="-2.95932">
        <ele>154</ele>
        <time>2020-06-24T08:31:59Z</time>
      </trkpt>
      <trkpt lat="48.61136" lon="-2.95936">
        <ele>151</ele>
        <time>2020-06-24T08:32:02Z</time>
      </trkpt>
      <trkpt lat="48.6113" lon="-2.95941">
        <ele>151</ele>
        <time>2020-06-24T08:32:05Z</time>
      </trkpt>
      <trkpt lat="48.61126" lon="-2.95948">
        <ele>151</ele>
        <time>2020-06-24T08:32:09Z</time>
      </trkpt>
      <trkpt lat="48.61122" lon="-2.95952">
        <ele>154</ele>
        <time>2020-06-24T08:32:14Z</time>
      </trkpt>
      <trkpt lat="48.61119" lon="-2.95957">
        <ele>157</ele>
        <time>2020-06-24T08:32:30Z</time>
      </trkpt>
      <trkpt lat="48.61119" lon="-2.95957">
        <ele>157</ele>
        <time>2020-06-24T08:32:32Z</time>
      </trkpt>
      <trkpt lat="48.61115" lon="-2.95962">
        <ele>155</ele>
        <time>2020-06-24T08:32:41Z</time>
      </trkpt>
      <trkpt lat="48.61111" lon="-2.95966">
        <ele>153</ele>
        <time>2020-06-24T08:32:43Z</time>
      </trkpt>
      <trkpt lat="48.61106" lon="-2.9597">
        <ele>154</ele>
        <time>2020-06-24T08:32:45Z</time>
      </trkpt>
      <trkpt lat="48.61102" lon="-2.95974">
        <ele>153</ele>
        <time>2020-06-24T08:32:47Z</time>
      </trkpt>
      <trkpt lat="48.61097" lon="-2.9598">
        <ele>156</ele>
        <time>2020-06-24T08:32:50Z</time>
      </trkpt>
      <trkpt lat="48.61094" lon="-2.95986">
        <ele>157</ele>
        <time>2020-06-24T08:32:53Z</time>
      </trkpt>
      <trkpt lat="48.61092" lon="-2.95992">
        <ele>154</ele>
        <time>2020-06-24T08:32:57Z</time>
      </trkpt>
      <trkpt lat="48.61089" lon="-2.95997">
        <ele>156</ele>
        <time>2020-06-24T08:33:00Z</time>
      </trkpt>
      <trkpt lat="48.61084" lon="-2.96003">
        <ele>158</ele>
        <time>2020-06-24T08:33:04Z</time>
      </trkpt>
      <trkpt lat="48.61081" lon="-2.96007">
        <ele>159</ele>
        <time>2020-06-24T08:33:07Z</time>
      </trkpt>
      <trkpt lat="48.61076" lon="-2.96012">
        <ele>158</ele>
        <time>2020-06-24T08:33:10Z</time>
      </trkpt>
      <trkpt lat="48.61072" lon="-2.96016">
        <ele>158</ele>
        <time>2020-06-24T08:33:12Z</time>
      </trkpt>
      <trkpt lat="48.61068" lon="-2.9602">
        <ele>159</ele>
        <time>2020-06-24T08:33:14Z</time>
      </trkpt>
      <trkpt lat="48.61063" lon="-2.96025">
        <ele>158</ele>
        <time>2020-06-24T08:33:17Z</time>
      </trkpt>
      <trkpt lat="48.61062" lon="-2.96033">
        <ele>158</ele>
        <time>2020-06-24T08:33:20Z</time>
      </trkpt>
      <trkpt lat="48.61058" lon="-2.96039">
        <ele>161</ele>
        <time>2020-06-24T08:33:25Z</time>
      </trkpt>
      <trkpt lat="48.61057" lon="-2.96046">
        <ele>158</ele>
        <time>2020-06-24T08:33:30Z</time>
      </trkpt>
      <trkpt lat="48.61052" lon="-2.96051">
        <ele>161</ele>
        <time>2020-06-24T08:33:40Z</time>
      </trkpt>
      <trkpt lat="48.6105" lon="-2.96056">
        <ele>158</ele>
        <time>2020-06-24T08:33:46Z</time>
      </trkpt>
      <trkpt lat="48.61045" lon="-2.96061">
        <ele>161</ele>
        <time>2020-06-24T08:33:50Z</time>
      </trkpt>
      <trkpt lat="48.61041" lon="-2.96064">
        <ele>157</ele>
        <time>2020-06-24T08:33:54Z</time>
      </trkpt>
      <trkpt lat="48.61036" lon="-2.96069">
        <ele>160</ele>
        <time>2020-06-24T08:33:59Z</time>
      </trkpt>
      <trkpt lat="48.61034" lon="-2.96075">
        <ele>159</ele>
        <time>2020-06-24T08:34:04Z</time>
      </trkpt>
      <trkpt lat="48.6103" lon="-2.96079">
        <ele>162</ele>
        <time>2020-06-24T08:34:27Z</time>
      </trkpt>
      <trkpt lat="48.61026" lon="-2.96084">
        <ele>162</ele>
        <time>2020-06-24T08:34:30Z</time>
      </trkpt>
      <trkpt lat="48.61025" lon="-2.96092">
        <ele>160</ele>
        <time>2020-06-24T08:34:34Z</time>
      </trkpt>
      <trkpt lat="48.6102" lon="-2.96096">
        <ele>161</ele>
        <time>2020-06-24T08:34:39Z</time>
      </trkpt>
      <trkpt lat="48.61016" lon="-2.96101">
        <ele>160</ele>
        <time>2020-06-24T08:34:42Z</time>
      </trkpt>
      <trkpt lat="48.61014" lon="-2.96109">
        <ele>158</ele>
        <time>2020-06-24T08:34:47Z</time>
      </trkpt>
      <trkpt lat="48.61012" lon="-2.96117">
        <ele>159</ele>
        <time>2020-06-24T08:34:50Z</time>
      </trkpt>
      <trkpt lat="48.6101" lon="-2.96123">
        <ele>163</ele>
        <time>2020-06-24T08:34:53Z</time>
      </trkpt>
      <trkpt lat="48.61006" lon="-2.96129">
        <ele>166</ele>
        <time>2020-06-24T08:34:57Z</time>
      </trkpt>
      <trkpt lat="48.61002" lon="-2.96132">
        <ele>164</ele>
        <time>2020-06-24T08:35:02Z</time>
      </trkpt>
      <trkpt lat="48.61" lon="-2.96139">
        <ele>161</ele>
        <time>2020-06-24T08:35:07Z</time>
      </trkpt>
      <trkpt lat="48.61" lon="-2.96147">
        <ele>160</ele>
        <time>2020-06-24T08:35:10Z</time>
      </trkpt>
      <trkpt lat="48.60997" lon="-2.96153">
        <ele>160</ele>
        <time>2020-06-24T08:35:14Z</time>
      </trkpt>
      <trkpt lat="48.60992" lon="-2.96157">
        <ele>161</ele>
        <time>2020-06-24T08:35:19Z</time>
      </trkpt>
      <trkpt lat="48.60988" lon="-2.96161">
        <ele>163</ele>
        <time>2020-06-24T08:35:23Z</time>
      </trkpt>
      <trkpt lat="48.60984" lon="-2.96166">
        <ele>163</ele>
        <time>2020-06-24T08:35:27Z</time>
      </trkpt>
      <trkpt lat="48.60988" lon="-2.96172">
        <ele>159</ele>
        <time>2020-06-24T08:35:30Z</time>
      </trkpt>
      <trkpt lat="48.60989" lon="-2.96173">
        <ele>160</ele>
        <time>2020-06-24T08:35:45Z</time>
      </trkpt>
      <trkpt lat="48.60989" lon="-2.96173">
        <ele>160</ele>
        <time>2020-06-24T08:35:47Z</time>
      </trkpt>
      <trkpt lat="48.60984" lon="-2.96173">
        <ele>166</ele>
        <time>2020-06-24T08:36:08Z</time>
      </trkpt>
      <trkpt lat="48.60985" lon="-2.96173">
        <ele>164</ele>
        <time>2020-06-24T08:36:23Z</time>
      </trkpt>
      <trkpt lat="48.60984" lon="-2.96172">
        <ele>164</ele>
        <time>2020-06-24T08:36:40Z</time>
      </trkpt>
      <trkpt lat="48.60982" lon="-2.96179">
        <ele>164</ele>
        <time>2020-06-24T08:36:54Z</time>
      </trkpt>
      <trkpt lat="48.60973" lon="-2.96186">
        <ele>161</ele>
        <time>2020-06-24T08:37:02Z</time>
      </trkpt>
      <trkpt lat="48.6097" lon="-2.96193">
        <ele>160</ele>
        <time>2020-06-24T08:37:05Z</time>
      </trkpt>
      <trkpt lat="48.60969" lon="-2.96201">
        <ele>158</ele>
        <time>2020-06-24T08:37:08Z</time>
      </trkpt>
      <trkpt lat="48.60967" lon="-2.96209">
        <ele>161</ele>
        <time>2020-06-24T08:37:12Z</time>
      </trkpt>
      <trkpt lat="48.60964" lon="-2.96218">
        <ele>159</ele>
        <time>2020-06-24T08:37:15Z</time>
      </trkpt>
      <trkpt lat="48.60961" lon="-2.96224">
        <ele>157</ele>
        <time>2020-06-24T08:37:19Z</time>
      </trkpt>
      <trkpt lat="48.60957" lon="-2.96228">
        <ele>158</ele>
        <time>2020-06-24T08:37:23Z</time>
      </trkpt>
      <trkpt lat="48.60953" lon="-2.96235">
        <ele>158</ele>
        <time>2020-06-24T08:37:27Z</time>
      </trkpt>
      <trkpt lat="48.60951" lon="-2.96242">
        <ele>155</ele>
        <time>2020-06-24T08:37:30Z</time>
      </trkpt>
      <trkpt lat="48.60947" lon="-2.96245">
        <ele>154</ele>
        <time>2020-06-24T08:37:34Z</time>
      </trkpt>
      <trkpt lat="48.60943" lon="-2.9625">
        <ele>157</ele>
        <time>2020-06-24T08:37:41Z</time>
      </trkpt>
      <trkpt lat="48.60938" lon="-2.96252">
        <ele>159</ele>
        <time>2020-06-24T08:37:45Z</time>
      </trkpt>
      <trkpt lat="48.60936" lon="-2.96258">
        <ele>159</ele>
        <time>2020-06-24T08:37:49Z</time>
      </trkpt>
      <trkpt lat="48.60933" lon="-2.96265">
        <ele>160</ele>
        <time>2020-06-24T08:37:56Z</time>
      </trkpt>
      <trkpt lat="48.60928" lon="-2.96267">
        <ele>162</ele>
        <time>2020-06-24T08:38:02Z</time>
      </trkpt>
      <trkpt lat="48.60929" lon="-2.96274">
        <ele>165</ele>
        <time>2020-06-24T08:38:13Z</time>
      </trkpt>
      <trkpt lat="48.60923" lon="-2.96275">
        <ele>167</ele>
        <time>2020-06-24T08:38:35Z</time>
      </trkpt>
      <trkpt lat="48.60918" lon="-2.96279">
        <ele>166</ele>
        <time>2020-06-24T08:38:37Z</time>
      </trkpt>
      <trkpt lat="48.60914" lon="-2.96284">
        <ele>165</ele>
        <time>2020-06-24T08:38:39Z</time>
      </trkpt>
      <trkpt lat="48.60912" lon="-2.9629">
        <ele>164</ele>
        <time>2020-06-24T08:38:42Z</time>
      </trkpt>
      <trkpt lat="48.6091" lon="-2.96297">
        <ele>162</ele>
        <time>2020-06-24T08:38:45Z</time>
      </trkpt>
      <trkpt lat="48.60907" lon="-2.96303">
        <ele>161</ele>
        <time>2020-06-24T08:38:47Z</time>
      </trkpt>
      <trkpt lat="48.60903" lon="-2.96306">
        <ele>163</ele>
        <time>2020-06-24T08:38:50Z</time>
      </trkpt>
      <trkpt lat="48.60899" lon="-2.96308">
        <ele>164</ele>
        <time>2020-06-24T08:38:52Z</time>
      </trkpt>
      <trkpt lat="48.60895" lon="-2.96312">
        <ele>162</ele>
        <time>2020-06-24T08:39:01Z</time>
      </trkpt>
      <trkpt lat="48.60895" lon="-2.96321">
        <ele>158</ele>
        <time>2020-06-24T08:39:08Z</time>
      </trkpt>
      <trkpt lat="48.60893" lon="-2.96328">
        <ele>156</ele>
        <time>2020-06-24T08:39:13Z</time>
      </trkpt>
      <trkpt lat="48.6089" lon="-2.96333">
        <ele>154</ele>
        <time>2020-06-24T08:39:34Z</time>
      </trkpt>
      <trkpt lat="48.60886" lon="-2.96337">
        <ele>157</ele>
        <time>2020-06-24T08:39:37Z</time>
      </trkpt>
      <trkpt lat="48.60882" lon="-2.96342">
        <ele>157</ele>
        <time>2020-06-24T08:39:40Z</time>
      </trkpt>
      <trkpt lat="48.6088" lon="-2.96349">
        <ele>159</ele>
        <time>2020-06-24T08:39:44Z</time>
      </trkpt>
      <trkpt lat="48.60876" lon="-2.96354">
        <ele>159</ele>
        <time>2020-06-24T08:39:49Z</time>
      </trkpt>
      <trkpt lat="48.60872" lon="-2.96358">
        <ele>158</ele>
        <time>2020-06-24T08:39:54Z</time>
      </trkpt>
      <trkpt lat="48.60869" lon="-2.96364">
        <ele>155</ele>
        <time>2020-06-24T08:39:58Z</time>
      </trkpt>
      <trkpt lat="48.60868" lon="-2.96371">
        <ele>155</ele>
        <time>2020-06-24T08:40:02Z</time>
      </trkpt>
      <trkpt lat="48.60864" lon="-2.96378">
        <ele>155</ele>
        <time>2020-06-24T08:40:06Z</time>
      </trkpt>
      <trkpt lat="48.60863" lon="-2.96386">
        <ele>153</ele>
        <time>2020-06-24T08:40:09Z</time>
      </trkpt>
      <trkpt lat="48.60863" lon="-2.96393">
        <ele>153</ele>
        <time>2020-06-24T08:40:13Z</time>
      </trkpt>
      <trkpt lat="48.60862" lon="-2.964">
        <ele>156</ele>
        <time>2020-06-24T08:40:16Z</time>
      </trkpt>
      <trkpt lat="48.60862" lon="-2.96408">
        <ele>152</ele>
        <time>2020-06-24T08:40:22Z</time>
      </trkpt>
      <trkpt lat="48.60859" lon="-2.96415">
        <ele>156</ele>
        <time>2020-06-24T08:40:28Z</time>
      </trkpt>
      <trkpt lat="48.60858" lon="-2.9642">
        <ele>156</ele>
        <time>2020-06-24T08:40:50Z</time>
      </trkpt>
      <trkpt lat="48.60856" lon="-2.96435">
        <ele>157</ele>
        <time>2020-06-24T08:40:53Z</time>
      </trkpt>
      <trkpt lat="48.60858" lon="-2.9642">
        <ele>156</ele>
        <time>2020-06-24T08:40:54Z</time>
      </trkpt>
      <trkpt lat="48.60857" lon="-2.96427">
        <ele>154</ele>
        <time>2020-06-24T08:41:07Z</time>
      </trkpt>
      <trkpt lat="48.60858" lon="-2.96434">
        <ele>155</ele>
        <time>2020-06-24T08:41:13Z</time>
      </trkpt>
      <trkpt lat="48.60854" lon="-2.9644">
        <ele>152</ele>
        <time>2020-06-24T08:41:19Z</time>
      </trkpt>
      <trkpt lat="48.60851" lon="-2.96447">
        <ele>156</ele>
        <time>2020-06-24T08:41:22Z</time>
      </trkpt>
      <trkpt lat="48.60849" lon="-2.96454">
        <ele>156</ele>
        <time>2020-06-24T08:41:28Z</time>
      </trkpt>
      <trkpt lat="48.60845" lon="-2.96458">
        <ele>156</ele>
        <time>2020-06-24T08:41:38Z</time>
      </trkpt>
      <trkpt lat="48.60841" lon="-2.9646">
        <ele>156</ele>
        <time>2020-06-24T08:41:40Z</time>
      </trkpt>
      <trkpt lat="48.60836" lon="-2.96464">
        <ele>156</ele>
        <time>2020-06-24T08:41:44Z</time>
      </trkpt>
      <trkpt lat="48.60832" lon="-2.96467">
        <ele>160</ele>
        <time>2020-06-24T08:41:46Z</time>
      </trkpt>
      <trkpt lat="48.60827" lon="-2.96473">
        <ele>162</ele>
        <time>2020-06-24T08:41:49Z</time>
      </trkpt>
      <trkpt lat="48.60823" lon="-2.96478">
        <ele>159</ele>
        <time>2020-06-24T08:41:52Z</time>
      </trkpt>
      <trkpt lat="48.60822" lon="-2.96486">
        <ele>159</ele>
        <time>2020-06-24T08:41:55Z</time>
      </trkpt>
      <trkpt lat="48.60819" lon="-2.96493">
        <ele>157</ele>
        <time>2020-06-24T08:41:59Z</time>
      </trkpt>
      <trkpt lat="48.60814" lon="-2.96498">
        <ele>162</ele>
        <time>2020-06-24T08:42:05Z</time>
      </trkpt>
      <trkpt lat="48.60809" lon="-2.96501">
        <ele>160</ele>
        <time>2020-06-24T08:42:07Z</time>
      </trkpt>
      <trkpt lat="48.60804" lon="-2.96504">
        <ele>162</ele>
        <time>2020-06-24T08:42:11Z</time>
      </trkpt>
      <trkpt lat="48.60799" lon="-2.96506">
        <ele>149</ele>
        <time>2020-06-24T08:42:14Z</time>
      </trkpt>
      <trkpt lat="48.60795" lon="-2.96509">
        <ele>153</ele>
        <time>2020-06-24T08:42:17Z</time>
      </trkpt>
      <trkpt lat="48.60795" lon="-2.96516">
        <ele>158</ele>
        <time>2020-06-24T08:42:22Z</time>
      </trkpt>
      <trkpt lat="48.60793" lon="-2.96523">
        <ele>162</ele>
        <time>2020-06-24T08:42:47Z</time>
      </trkpt>
      <trkpt lat="48.60793" lon="-2.96523">
        <ele>162</ele>
        <time>2020-06-24T08:43:06Z</time>
      </trkpt>
      <trkpt lat="48.60788" lon="-2.96538">
        <ele>162</ele>
        <time>2020-06-24T08:43:08Z</time>
      </trkpt>
      <trkpt lat="48.60793" lon="-2.96523">
        <ele>162</ele>
        <time>2020-06-24T08:43:09Z</time>
      </trkpt>
      <trkpt lat="48.60791" lon="-2.96529">
        <ele>160</ele>
        <time>2020-06-24T08:43:29Z</time>
      </trkpt>
      <trkpt lat="48.60791" lon="-2.96536">
        <ele>158</ele>
        <time>2020-06-24T08:43:44Z</time>
      </trkpt>
      <trkpt lat="48.60791" lon="-2.96544">
        <ele>158</ele>
        <time>2020-06-24T08:43:59Z</time>
      </trkpt>
      <trkpt lat="48.6078" lon="-2.96576">
        <ele>160</ele>
        <time>2020-06-24T08:44:23Z</time>
      </trkpt>
      <trkpt lat="48.60791" lon="-2.9655">
        <ele>157</ele>
        <time>2020-06-24T08:44:24Z</time>
      </trkpt>
      <trkpt lat="48.6079" lon="-2.96557">
        <ele>158</ele>
        <time>2020-06-24T08:44:26Z</time>
      </trkpt>
      <trkpt lat="48.60786" lon="-2.96566">
        <ele>157</ele>
        <time>2020-06-24T08:44:28Z</time>
      </trkpt>
      <trkpt lat="48.60781" lon="-2.96573">
        <ele>157</ele>
        <time>2020-06-24T08:44:30Z</time>
      </trkpt>
      <trkpt lat="48.60778" lon="-2.96579">
        <ele>156</ele>
        <time>2020-06-24T08:44:33Z</time>
      </trkpt>
      <trkpt lat="48.60776" lon="-2.96586">
        <ele>157</ele>
        <time>2020-06-24T08:44:36Z</time>
      </trkpt>
      <trkpt lat="48.60773" lon="-2.96592">
        <ele>160</ele>
        <time>2020-06-24T08:44:39Z</time>
      </trkpt>
      <trkpt lat="48.60769" lon="-2.96595">
        <ele>160</ele>
        <time>2020-06-24T08:44:41Z</time>
      </trkpt>
      <trkpt lat="48.60765" lon="-2.96599">
        <ele>164</ele>
        <time>2020-06-24T08:44:43Z</time>
      </trkpt>
      <trkpt lat="48.60762" lon="-2.96606">
        <ele>166</ele>
        <time>2020-06-24T08:44:46Z</time>
      </trkpt>
      <trkpt lat="48.60758" lon="-2.96611">
        <ele>163</ele>
        <time>2020-06-24T08:44:49Z</time>
      </trkpt>
      <trkpt lat="48.60753" lon="-2.96613">
        <ele>161</ele>
        <time>2020-06-24T08:44:52Z</time>
      </trkpt>
      <trkpt lat="48.60748" lon="-2.96615">
        <ele>166</ele>
        <time>2020-06-24T08:44:55Z</time>
      </trkpt>
      <trkpt lat="48.60743" lon="-2.96616">
        <ele>164</ele>
        <time>2020-06-24T08:45:00Z</time>
      </trkpt>
      <trkpt lat="48.60737" lon="-2.96617">
        <ele>166</ele>
        <time>2020-06-24T08:45:05Z</time>
      </trkpt>
      <trkpt lat="48.60733" lon="-2.96623">
        <ele>164</ele>
        <time>2020-06-24T08:45:09Z</time>
      </trkpt>
      <trkpt lat="48.6073" lon="-2.96629">
        <ele>165</ele>
        <time>2020-06-24T08:45:13Z</time>
      </trkpt>
      <trkpt lat="48.60729" lon="-2.96636">
        <ele>160</ele>
        <time>2020-06-24T08:45:17Z</time>
      </trkpt>
      <trkpt lat="48.60727" lon="-2.96638">
        <ele>161</ele>
        <time>2020-06-24T08:45:36Z</time>
      </trkpt>
      <trkpt lat="48.60725" lon="-2.96635">
        <ele>164</ele>
        <time>2020-06-24T08:45:38Z</time>
      </trkpt>
      <trkpt lat="48.60724" lon="-2.96643">
        <ele>157</ele>
        <time>2020-06-24T08:45:54Z</time>
      </trkpt>
      <trkpt lat="48.60722" lon="-2.9665">
        <ele>157</ele>
        <time>2020-06-24T08:45:57Z</time>
      </trkpt>
      <trkpt lat="48.60718" lon="-2.96657">
        <ele>158</ele>
        <time>2020-06-24T08:46:01Z</time>
      </trkpt>
      <trkpt lat="48.60714" lon="-2.96661">
        <ele>155</ele>
        <time>2020-06-24T08:46:05Z</time>
      </trkpt>
      <trkpt lat="48.60711" lon="-2.96666">
        <ele>154</ele>
        <time>2020-06-24T08:46:09Z</time>
      </trkpt>
      <trkpt lat="48.60706" lon="-2.96671">
        <ele>156</ele>
        <time>2020-06-24T08:46:13Z</time>
      </trkpt>
      <trkpt lat="48.60702" lon="-2.96677">
        <ele>155</ele>
        <time>2020-06-24T08:46:17Z</time>
      </trkpt>
      <trkpt lat="48.60698" lon="-2.96682">
        <ele>155</ele>
        <time>2020-06-24T08:46:20Z</time>
      </trkpt>
      <trkpt lat="48.60695" lon="-2.9669">
        <ele>155</ele>
        <time>2020-06-24T08:46:23Z</time>
      </trkpt>
      <trkpt lat="48.60693" lon="-2.96696">
        <ele>155</ele>
        <time>2020-06-24T08:46:25Z</time>
      </trkpt>
      <trkpt lat="48.6069" lon="-2.96702">
        <ele>156</ele>
        <time>2020-06-24T08:46:28Z</time>
      </trkpt>
      <trkpt lat="48.60686" lon="-2.96709">
        <ele>158</ele>
        <time>2020-06-24T08:46:33Z</time>
      </trkpt>
      <trkpt lat="48.60682" lon="-2.96715">
        <ele>159</ele>
        <time>2020-06-24T08:46:37Z</time>
      </trkpt>
      <trkpt lat="48.6068" lon="-2.96722">
        <ele>156</ele>
        <time>2020-06-24T08:46:40Z</time>
      </trkpt>
      <trkpt lat="48.60677" lon="-2.96728">
        <ele>157</ele>
        <time>2020-06-24T08:46:49Z</time>
      </trkpt>
      <trkpt lat="48.60674" lon="-2.96733">
        <ele>158</ele>
        <time>2020-06-24T08:46:52Z</time>
      </trkpt>
      <trkpt lat="48.6067" lon="-2.96738">
        <ele>158</ele>
        <time>2020-06-24T08:46:56Z</time>
      </trkpt>
      <trkpt lat="48.60665" lon="-2.96738">
        <ele>158</ele>
        <time>2020-06-24T08:47:10Z</time>
      </trkpt>
      <trkpt lat="48.60659" lon="-2.9674">
        <ele>155</ele>
        <time>2020-06-24T08:47:15Z</time>
      </trkpt>
      <trkpt lat="48.60655" lon="-2.96745">
        <ele>154</ele>
        <time>2020-06-24T08:47:18Z</time>
      </trkpt>
      <trkpt lat="48.6065" lon="-2.96751">
        <ele>157</ele>
        <time>2020-06-24T08:47:21Z</time>
      </trkpt>
      <trkpt lat="48.60646" lon="-2.96757">
        <ele>156</ele>
        <time>2020-06-24T08:47:24Z</time>
      </trkpt>
      <trkpt lat="48.60643" lon="-2.96763">
        <ele>157</ele>
        <time>2020-06-24T08:47:29Z</time>
      </trkpt>
      <trkpt lat="48.6064" lon="-2.96768">
        <ele>157</ele>
        <time>2020-06-24T08:47:32Z</time>
      </trkpt>
      <trkpt lat="48.60636" lon="-2.96775">
        <ele>158</ele>
        <time>2020-06-24T08:47:35Z</time>
      </trkpt>
      <trkpt lat="48.60632" lon="-2.96782">
        <ele>159</ele>
        <time>2020-06-24T08:47:38Z</time>
      </trkpt>
      <trkpt lat="48.6063" lon="-2.96788">
        <ele>159</ele>
        <time>2020-06-24T08:47:43Z</time>
      </trkpt>
      <trkpt lat="48.60625" lon="-2.96791">
        <ele>157</ele>
        <time>2020-06-24T08:47:46Z</time>
      </trkpt>
      <trkpt lat="48.6062" lon="-2.96796">
        <ele>156</ele>
        <time>2020-06-24T08:47:50Z</time>
      </trkpt>
      <trkpt lat="48.60616" lon="-2.968">
        <ele>156</ele>
        <time>2020-06-24T08:47:53Z</time>
      </trkpt>
      <trkpt lat="48.60611" lon="-2.96802">
        <ele>156</ele>
        <time>2020-06-24T08:47:59Z</time>
      </trkpt>
      <trkpt lat="48.60607" lon="-2.96807">
        <ele>150</ele>
        <time>2020-06-24T08:48:03Z</time>
      </trkpt>
      <trkpt lat="48.60606" lon="-2.96806">
        <ele>142</ele>
        <time>2020-06-24T08:48:21Z</time>
      </trkpt>
      <trkpt lat="48.60606" lon="-2.96806">
        <ele>142</ele>
        <time>2020-06-24T08:48:23Z</time>
      </trkpt>
      <trkpt lat="48.60602" lon="-2.96808">
        <ele>145</ele>
        <time>2020-06-24T08:48:43Z</time>
      </trkpt>
      <trkpt lat="48.60599" lon="-2.96814">
        <ele>145</ele>
        <time>2020-06-24T08:48:47Z</time>
      </trkpt>
      <trkpt lat="48.60597" lon="-2.96823">
        <ele>149</ele>
        <time>2020-06-24T08:48:50Z</time>
      </trkpt>
      <trkpt lat="48.60595" lon="-2.96831">
        <ele>149</ele>
        <time>2020-06-24T08:48:52Z</time>
      </trkpt>
      <trkpt lat="48.60595" lon="-2.96838">
        <ele>148</ele>
        <time>2020-06-24T08:48:54Z</time>
      </trkpt>
      <trkpt lat="48.60596" lon="-2.96846">
        <ele>147</ele>
        <time>2020-06-24T08:48:57Z</time>
      </trkpt>
      <trkpt lat="48.606" lon="-2.96852">
        <ele>148</ele>
        <time>2020-06-24T08:49:07Z</time>
      </trkpt>
      <trkpt lat="48.606" lon="-2.96859">
        <ele>145</ele>
        <time>2020-06-24T08:49:12Z</time>
      </trkpt>
      <trkpt lat="48.60603" lon="-2.96864">
        <ele>146</ele>
        <time>2020-06-24T08:49:19Z</time>
      </trkpt>
      <trkpt lat="48.60607" lon="-2.96869">
        <ele>148</ele>
        <time>2020-06-24T08:49:23Z</time>
      </trkpt>
      <trkpt lat="48.6061" lon="-2.96875">
        <ele>148</ele>
        <time>2020-06-24T08:49:26Z</time>
      </trkpt>
      <trkpt lat="48.60613" lon="-2.96881">
        <ele>146</ele>
        <time>2020-06-24T08:49:30Z</time>
      </trkpt>
      <trkpt lat="48.60613" lon="-2.9689">
        <ele>147</ele>
        <time>2020-06-24T08:49:34Z</time>
      </trkpt>
      <trkpt lat="48.60614" lon="-2.96899">
        <ele>147</ele>
        <time>2020-06-24T08:49:37Z</time>
      </trkpt>
      <trkpt lat="48.60614" lon="-2.96909">
        <ele>148</ele>
        <time>2020-06-24T08:49:40Z</time>
      </trkpt>
      <trkpt lat="48.60615" lon="-2.96918">
        <ele>148</ele>
        <time>2020-06-24T08:49:42Z</time>
      </trkpt>
      <trkpt lat="48.60615" lon="-2.96927">
        <ele>150</ele>
        <time>2020-06-24T08:49:44Z</time>
      </trkpt>
      <trkpt lat="48.60614" lon="-2.96936">
        <ele>149</ele>
        <time>2020-06-24T08:49:46Z</time>
      </trkpt>
      <trkpt lat="48.60614" lon="-2.96944">
        <ele>146</ele>
        <time>2020-06-24T08:49:50Z</time>
      </trkpt>
      <trkpt lat="48.60615" lon="-2.96952">
        <ele>145</ele>
        <time>2020-06-24T08:49:54Z</time>
      </trkpt>
      <trkpt lat="48.60616" lon="-2.96959">
        <ele>144</ele>
        <time>2020-06-24T08:49:58Z</time>
      </trkpt>
      <trkpt lat="48.60616" lon="-2.96966">
        <ele>144</ele>
        <time>2020-06-24T08:50:01Z</time>
      </trkpt>
      <trkpt lat="48.60618" lon="-2.96973">
        <ele>141</ele>
        <time>2020-06-24T08:50:06Z</time>
      </trkpt>
      <trkpt lat="48.60621" lon="-2.9698">
        <ele>142</ele>
        <time>2020-06-24T08:50:10Z</time>
      </trkpt>
      <trkpt lat="48.60623" lon="-2.96987">
        <ele>143</ele>
        <time>2020-06-24T08:50:17Z</time>
      </trkpt>
      <trkpt lat="48.60626" lon="-2.96995">
        <ele>142</ele>
        <time>2020-06-24T08:50:21Z</time>
      </trkpt>
      <trkpt lat="48.60629" lon="-2.97">
        <ele>141</ele>
        <time>2020-06-24T08:50:26Z</time>
      </trkpt>
      <trkpt lat="48.60634" lon="-2.97004">
        <ele>142</ele>
        <time>2020-06-24T08:50:32Z</time>
      </trkpt>
      <trkpt lat="48.60639" lon="-2.97006">
        <ele>141</ele>
        <time>2020-06-24T08:50:37Z</time>
      </trkpt>
      <trkpt lat="48.60645" lon="-2.97005">
        <ele>141</ele>
        <time>2020-06-24T08:50:40Z</time>
      </trkpt>
      <trkpt lat="48.6065" lon="-2.97004">
        <ele>140</ele>
        <time>2020-06-24T08:50:42Z</time>
      </trkpt>
      <trkpt lat="48.60655" lon="-2.97003">
        <ele>140</ele>
        <time>2020-06-24T08:50:45Z</time>
      </trkpt>
      <trkpt lat="48.60661" lon="-2.97004">
        <ele>142</ele>
        <time>2020-06-24T08:50:49Z</time>
      </trkpt>
      <trkpt lat="48.60666" lon="-2.97005">
        <ele>142</ele>
        <time>2020-06-24T08:50:52Z</time>
      </trkpt>
      <trkpt lat="48.60671" lon="-2.97006">
        <ele>141</ele>
        <time>2020-06-24T08:50:55Z</time>
      </trkpt>
      <trkpt lat="48.60678" lon="-2.97005">
        <ele>140</ele>
        <time>2020-06-24T08:50:58Z</time>
      </trkpt>
      <trkpt lat="48.60683" lon="-2.97004">
        <ele>138</ele>
        <time>2020-06-24T08:51:02Z</time>
      </trkpt>
      <trkpt lat="48.60687" lon="-2.97008">
        <ele>142</ele>
        <time>2020-06-24T08:51:07Z</time>
      </trkpt>
      <trkpt lat="48.60693" lon="-2.97011">
        <ele>144</ele>
        <time>2020-06-24T08:51:11Z</time>
      </trkpt>
      <trkpt lat="48.60699" lon="-2.97015">
        <ele>144</ele>
        <time>2020-06-24T08:51:14Z</time>
      </trkpt>
      <trkpt lat="48.60704" lon="-2.97015">
        <ele>143</ele>
        <time>2020-06-24T08:51:17Z</time>
      </trkpt>
      <trkpt lat="48.60709" lon="-2.97015">
        <ele>143</ele>
        <time>2020-06-24T08:51:20Z</time>
      </trkpt>
      <trkpt lat="48.60714" lon="-2.9702">
        <ele>145</ele>
        <time>2020-06-24T08:51:23Z</time>
      </trkpt>
      <trkpt lat="48.6072" lon="-2.97023">
        <ele>144</ele>
        <time>2020-06-24T08:51:26Z</time>
      </trkpt>
      <trkpt lat="48.60725" lon="-2.97024">
        <ele>144</ele>
        <time>2020-06-24T08:51:28Z</time>
      </trkpt>
      <trkpt lat="48.6073" lon="-2.97026">
        <ele>143</ele>
        <time>2020-06-24T08:51:33Z</time>
      </trkpt>
      <trkpt lat="48.60734" lon="-2.97023">
        <ele>143</ele>
        <time>2020-06-24T08:51:40Z</time>
      </trkpt>
      <trkpt lat="48.6074" lon="-2.97026">
        <ele>142</ele>
        <time>2020-06-24T08:51:44Z</time>
      </trkpt>
      <trkpt lat="48.60746" lon="-2.97027">
        <ele>140</ele>
        <time>2020-06-24T08:51:47Z</time>
      </trkpt>
      <trkpt lat="48.60751" lon="-2.97027">
        <ele>140</ele>
        <time>2020-06-24T08:51:51Z</time>
      </trkpt>
      <trkpt lat="48.60756" lon="-2.97027">
        <ele>140</ele>
        <time>2020-06-24T08:51:54Z</time>
      </trkpt>
      <trkpt lat="48.60762" lon="-2.9703">
        <ele>140</ele>
        <time>2020-06-24T08:51:57Z</time>
      </trkpt>
      <trkpt lat="48.60768" lon="-2.97029">
        <ele>138</ele>
        <time>2020-06-24T08:52:01Z</time>
      </trkpt>
      <trkpt lat="48.60773" lon="-2.97032">
        <ele>141</ele>
        <time>2020-06-24T08:52:08Z</time>
      </trkpt>
      <trkpt lat="48.60779" lon="-2.97035">
        <ele>141</ele>
        <time>2020-06-24T08:52:11Z</time>
      </trkpt>
      <trkpt lat="48.60784" lon="-2.97035">
        <ele>138</ele>
        <time>2020-06-24T08:52:14Z</time>
      </trkpt>
      <trkpt lat="48.60789" lon="-2.97035">
        <ele>140</ele>
        <time>2020-06-24T08:52:17Z</time>
      </trkpt>
      <trkpt lat="48.60794" lon="-2.97037">
        <ele>141</ele>
        <time>2020-06-24T08:52:20Z</time>
      </trkpt>
      <trkpt lat="48.60799" lon="-2.97038">
        <ele>140</ele>
        <time>2020-06-24T08:52:23Z</time>
      </trkpt>
      <trkpt lat="48.60804" lon="-2.97038">
        <ele>139</ele>
        <time>2020-06-24T08:52:31Z</time>
      </trkpt>
      <trkpt lat="48.60809" lon="-2.97039">
        <ele>140</ele>
        <time>2020-06-24T08:52:36Z</time>
      </trkpt>
      <trkpt lat="48.60814" lon="-2.97039">
        <ele>139</ele>
        <time>2020-06-24T08:52:39Z</time>
      </trkpt>
      <trkpt lat="48.6082" lon="-2.9704">
        <ele>142</ele>
        <time>2020-06-24T08:52:43Z</time>
      </trkpt>
      <trkpt lat="48.60825" lon="-2.97041">
        <ele>140</ele>
        <time>2020-06-24T08:52:46Z</time>
      </trkpt>
      <trkpt lat="48.60831" lon="-2.9704">
        <ele>139</ele>
        <time>2020-06-24T08:52:50Z</time>
      </trkpt>
      <trkpt lat="48.60835" lon="-2.97036">
        <ele>137</ele>
        <time>2020-06-24T08:52:52Z</time>
      </trkpt>
      <trkpt lat="48.6084" lon="-2.97034">
        <ele>138</ele>
        <time>2020-06-24T08:52:56Z</time>
      </trkpt>
      <trkpt lat="48.60845" lon="-2.97034">
        <ele>139</ele>
        <time>2020-06-24T08:52:59Z</time>
      </trkpt>
      <trkpt lat="48.6085" lon="-2.97035">
        <ele>138</ele>
        <time>2020-06-24T08:53:01Z</time>
      </trkpt>
      <trkpt lat="48.60855" lon="-2.97034">
        <ele>139</ele>
        <time>2020-06-24T08:53:04Z</time>
      </trkpt>
      <trkpt lat="48.6086" lon="-2.97033">
        <ele>137</ele>
        <time>2020-06-24T08:53:08Z</time>
      </trkpt>
      <trkpt lat="48.60866" lon="-2.97036">
        <ele>137</ele>
        <time>2020-06-24T08:53:11Z</time>
      </trkpt>
      <trkpt lat="48.60871" lon="-2.97036">
        <ele>145</ele>
        <time>2020-06-24T08:53:14Z</time>
      </trkpt>
      <trkpt lat="48.60877" lon="-2.97039">
        <ele>145</ele>
        <time>2020-06-24T08:53:19Z</time>
      </trkpt>
      <trkpt lat="48.6088" lon="-2.97045">
        <ele>145</ele>
        <time>2020-06-24T08:53:22Z</time>
      </trkpt>
      <trkpt lat="48.60885" lon="-2.97049">
        <ele>146</ele>
        <time>2020-06-24T08:53:25Z</time>
      </trkpt>
      <trkpt lat="48.6089" lon="-2.97049">
        <ele>143</ele>
        <time>2020-06-24T08:53:27Z</time>
      </trkpt>
      <trkpt lat="48.60894" lon="-2.97049">
        <ele>143</ele>
        <time>2020-06-24T08:53:29Z</time>
      </trkpt>
      <trkpt lat="48.609" lon="-2.9705">
        <ele>142</ele>
        <time>2020-06-24T08:53:34Z</time>
      </trkpt>
      <trkpt lat="48.60904" lon="-2.97056">
        <ele>142</ele>
        <time>2020-06-24T08:53:39Z</time>
      </trkpt>
      <trkpt lat="48.60908" lon="-2.97061">
        <ele>141</ele>
        <time>2020-06-24T08:53:43Z</time>
      </trkpt>
      <trkpt lat="48.60914" lon="-2.9706">
        <ele>141</ele>
        <time>2020-06-24T08:53:46Z</time>
      </trkpt>
      <trkpt lat="48.60918" lon="-2.97061">
        <ele>141</ele>
        <time>2020-06-24T08:53:49Z</time>
      </trkpt>
      <trkpt lat="48.60923" lon="-2.97067">
        <ele>141</ele>
        <time>2020-06-24T08:53:55Z</time>
      </trkpt>
      <trkpt lat="48.60928" lon="-2.97068">
        <ele>142</ele>
        <time>2020-06-24T08:53:58Z</time>
      </trkpt>
      <trkpt lat="48.60931" lon="-2.97071">
        <ele>143</ele>
        <time>2020-06-24T08:54:01Z</time>
      </trkpt>
      <trkpt lat="48.60936" lon="-2.97075">
        <ele>144</ele>
        <time>2020-06-24T08:54:08Z</time>
      </trkpt>
      <trkpt lat="48.6094" lon="-2.97079">
        <ele>141</ele>
        <time>2020-06-24T08:54:12Z</time>
      </trkpt>
      <trkpt lat="48.60944" lon="-2.97086">
        <ele>142</ele>
        <time>2020-06-24T08:54:15Z</time>
      </trkpt>
      <trkpt lat="48.60949" lon="-2.97089">
        <ele>144</ele>
        <time>2020-06-24T08:54:18Z</time>
      </trkpt>
      <trkpt lat="48.60955" lon="-2.97094">
        <ele>143</ele>
        <time>2020-06-24T08:54:21Z</time>
      </trkpt>
      <trkpt lat="48.60959" lon="-2.97098">
        <ele>143</ele>
        <time>2020-06-24T08:54:24Z</time>
      </trkpt>
      <trkpt lat="48.60964" lon="-2.97099">
        <ele>143</ele>
        <time>2020-06-24T08:54:28Z</time>
      </trkpt>
      <trkpt lat="48.60969" lon="-2.97103">
        <ele>143</ele>
        <time>2020-06-24T08:54:33Z</time>
      </trkpt>
      <trkpt lat="48.60974" lon="-2.97104">
        <ele>142</ele>
        <time>2020-06-24T08:54:38Z</time>
      </trkpt>
      <trkpt lat="48.60972" lon="-2.97111">
        <ele>142</ele>
        <time>2020-06-24T08:55:00Z</time>
      </trkpt>
      <trkpt lat="48.60975" lon="-2.97116">
        <ele>143</ele>
        <time>2020-06-24T08:55:14Z</time>
      </trkpt>
      <trkpt lat="48.60981" lon="-2.97117">
        <ele>145</ele>
        <time>2020-06-24T08:55:18Z</time>
      </trkpt>
      <trkpt lat="48.60986" lon="-2.9712">
        <ele>144</ele>
        <time>2020-06-24T08:55:23Z</time>
      </trkpt>
      <trkpt lat="48.60992" lon="-2.97122">
        <ele>147</ele>
        <time>2020-06-24T08:55:28Z</time>
      </trkpt>
      <trkpt lat="48.60997" lon="-2.97124">
        <ele>149</ele>
        <time>2020-06-24T08:55:31Z</time>
      </trkpt>
      <trkpt lat="48.61003" lon="-2.97125">
        <ele>148</ele>
        <time>2020-06-24T08:55:34Z</time>
      </trkpt>
      <trkpt lat="48.61008" lon="-2.97124">
        <ele>148</ele>
        <time>2020-06-24T08:55:37Z</time>
      </trkpt>
      <trkpt lat="48.61014" lon="-2.97126">
        <ele>151</ele>
        <time>2020-06-24T08:55:41Z</time>
      </trkpt>
      <trkpt lat="48.6102" lon="-2.97131">
        <ele>151</ele>
        <time>2020-06-24T08:55:44Z</time>
      </trkpt>
      <trkpt lat="48.61026" lon="-2.97134">
        <ele>151</ele>
        <time>2020-06-24T08:55:47Z</time>
      </trkpt>
      <trkpt lat="48.61031" lon="-2.97136">
        <ele>149</ele>
        <time>2020-06-24T08:55:51Z</time>
      </trkpt>
      <trkpt lat="48.61035" lon="-2.97139">
        <ele>148</ele>
        <time>2020-06-24T08:55:56Z</time>
      </trkpt>
      <trkpt lat="48.6104" lon="-2.9714">
        <ele>148</ele>
        <time>2020-06-24T08:55:59Z</time>
      </trkpt>
      <trkpt lat="48.61045" lon="-2.97137">
        <ele>149</ele>
        <time>2020-06-24T08:56:03Z</time>
      </trkpt>
      <trkpt lat="48.6105" lon="-2.97134">
        <ele>148</ele>
        <time>2020-06-24T08:56:06Z</time>
      </trkpt>
      <trkpt lat="48.61054" lon="-2.9713">
        <ele>149</ele>
        <time>2020-06-24T08:56:09Z</time>
      </trkpt>
      <trkpt lat="48.61058" lon="-2.97125">
        <ele>150</ele>
        <time>2020-06-24T08:56:11Z</time>
      </trkpt>
      <trkpt lat="48.61062" lon="-2.9712">
        <ele>150</ele>
        <time>2020-06-24T08:56:14Z</time>
      </trkpt>
      <trkpt lat="48.61067" lon="-2.97117">
        <ele>154</ele>
        <time>2020-06-24T08:56:21Z</time>
      </trkpt>
      <trkpt lat="48.61071" lon="-2.97111">
        <ele>151</ele>
        <time>2020-06-24T08:56:25Z</time>
      </trkpt>
      <trkpt lat="48.61075" lon="-2.97106">
        <ele>150</ele>
        <time>2020-06-24T08:56:29Z</time>
      </trkpt>
      <trkpt lat="48.61081" lon="-2.97102">
        <ele>152</ele>
        <time>2020-06-24T08:56:32Z</time>
      </trkpt>
      <trkpt lat="48.61081" lon="-2.97094">
        <ele>149</ele>
        <time>2020-06-24T08:56:40Z</time>
      </trkpt>
      <trkpt lat="48.61083" lon="-2.97088">
        <ele>149</ele>
        <time>2020-06-24T08:56:46Z</time>
      </trkpt>
      <trkpt lat="48.61087" lon="-2.97082">
        <ele>146</ele>
        <time>2020-06-24T08:56:50Z</time>
      </trkpt>
      <trkpt lat="48.61089" lon="-2.97076">
        <ele>146</ele>
        <time>2020-06-24T08:56:57Z</time>
      </trkpt>
      <trkpt lat="48.61094" lon="-2.97073">
        <ele>152</ele>
        <time>2020-06-24T08:57:17Z</time>
      </trkpt>
      <trkpt lat="48.61098" lon="-2.9707">
        <ele>152</ele>
        <time>2020-06-24T08:57:23Z</time>
      </trkpt>
      <trkpt lat="48.61103" lon="-2.97066">
        <ele>154</ele>
        <time>2020-06-24T08:57:27Z</time>
      </trkpt>
      <trkpt lat="48.61107" lon="-2.97062">
        <ele>155</ele>
        <time>2020-06-24T08:57:32Z</time>
      </trkpt>
      <trkpt lat="48.6111" lon="-2.97056">
        <ele>156</ele>
        <time>2020-06-24T08:57:35Z</time>
      </trkpt>
      <trkpt lat="48.61112" lon="-2.97048">
        <ele>153</ele>
        <time>2020-06-24T08:57:39Z</time>
      </trkpt>
      <trkpt lat="48.61114" lon="-2.9704">
        <ele>153</ele>
        <time>2020-06-24T08:57:43Z</time>
      </trkpt>
      <trkpt lat="48.61117" lon="-2.97033">
        <ele>154</ele>
        <time>2020-06-24T08:57:46Z</time>
      </trkpt>
      <trkpt lat="48.6112" lon="-2.97027">
        <ele>156</ele>
        <time>2020-06-24T08:57:48Z</time>
      </trkpt>
      <trkpt lat="48.61123" lon="-2.97021">
        <ele>156</ele>
        <time>2020-06-24T08:57:50Z</time>
      </trkpt>
      <trkpt lat="48.61126" lon="-2.97014">
        <ele>156</ele>
        <time>2020-06-24T08:57:53Z</time>
      </trkpt>
      <trkpt lat="48.61128" lon="-2.97006">
        <ele>157</ele>
        <time>2020-06-24T08:57:58Z</time>
      </trkpt>
      <trkpt lat="48.61132" lon="-2.97002">
        <ele>155</ele>
        <time>2020-06-24T08:58:04Z</time>
      </trkpt>
      <trkpt lat="48.61135" lon="-2.96998">
        <ele>154</ele>
        <time>2020-06-24T08:58:09Z</time>
      </trkpt>
      <trkpt lat="48.6114" lon="-2.96991">
        <ele>153</ele>
        <time>2020-06-24T08:58:13Z</time>
      </trkpt>
      <trkpt lat="48.61141" lon="-2.96985">
        <ele>150</ele>
        <time>2020-06-24T08:58:16Z</time>
      </trkpt>
      <trkpt lat="48.61146" lon="-2.96978">
        <ele>151</ele>
        <time>2020-06-24T08:58:25Z</time>
      </trkpt>
      <trkpt lat="48.61148" lon="-2.96972">
        <ele>148</ele>
        <time>2020-06-24T08:58:29Z</time>
      </trkpt>
      <trkpt lat="48.6115" lon="-2.96964">
        <ele>147</ele>
        <time>2020-06-24T08:58:35Z</time>
      </trkpt>
      <trkpt lat="48.61154" lon="-2.96959">
        <ele>149</ele>
        <time>2020-06-24T08:58:38Z</time>
      </trkpt>
      <trkpt lat="48.61157" lon="-2.96953">
        <ele>148</ele>
        <time>2020-06-24T08:58:41Z</time>
      </trkpt>
      <trkpt lat="48.61159" lon="-2.96945">
        <ele>146</ele>
        <time>2020-06-24T08:58:45Z</time>
      </trkpt>
      <trkpt lat="48.6116" lon="-2.96938">
        <ele>147</ele>
        <time>2020-06-24T08:58:50Z</time>
      </trkpt>
      <trkpt lat="48.61163" lon="-2.96933">
        <ele>145</ele>
        <time>2020-06-24T08:58:56Z</time>
      </trkpt>
      <trkpt lat="48.61165" lon="-2.96924">
        <ele>147</ele>
        <time>2020-06-24T08:59:00Z</time>
      </trkpt>
      <trkpt lat="48.61166" lon="-2.96917">
        <ele>148</ele>
        <time>2020-06-24T08:59:02Z</time>
      </trkpt>
      <trkpt lat="48.61169" lon="-2.96911">
        <ele>149</ele>
        <time>2020-06-24T08:59:05Z</time>
      </trkpt>
      <trkpt lat="48.61173" lon="-2.96906">
        <ele>153</ele>
        <time>2020-06-24T08:59:08Z</time>
      </trkpt>
      <trkpt lat="48.61175" lon="-2.96899">
        <ele>153</ele>
        <time>2020-06-24T08:59:13Z</time>
      </trkpt>
      <trkpt lat="48.61178" lon="-2.96892">
        <ele>154</ele>
        <time>2020-06-24T08:59:16Z</time>
      </trkpt>
      <trkpt lat="48.61179" lon="-2.96884">
        <ele>153</ele>
        <time>2020-06-24T08:59:20Z</time>
      </trkpt>
      <trkpt lat="48.61182" lon="-2.96876">
        <ele>156</ele>
        <time>2020-06-24T08:59:23Z</time>
      </trkpt>
      <trkpt lat="48.61184" lon="-2.96869">
        <ele>156</ele>
        <time>2020-06-24T08:59:25Z</time>
      </trkpt>
      <trkpt lat="48.61187" lon="-2.96863">
        <ele>156</ele>
        <time>2020-06-24T08:59:27Z</time>
      </trkpt>
      <trkpt lat="48.61189" lon="-2.96855">
        <ele>152</ele>
        <time>2020-06-24T08:59:31Z</time>
      </trkpt>
      <trkpt lat="48.61189" lon="-2.96848">
        <ele>153</ele>
        <time>2020-06-24T08:59:38Z</time>
      </trkpt>
      <trkpt lat="48.61192" lon="-2.96841">
        <ele>152</ele>
        <time>2020-06-24T08:59:42Z</time>
      </trkpt>
      <trkpt lat="48.61195" lon="-2.96835">
        <ele>149</ele>
        <time>2020-06-24T08:59:46Z</time>
      </trkpt>
      <trkpt lat="48.612" lon="-2.96831">
        <ele>149</ele>
        <time>2020-06-24T08:59:50Z</time>
      </trkpt>
      <trkpt lat="48.61206" lon="-2.9683">
        <ele>149</ele>
        <time>2020-06-24T08:59:53Z</time>
      </trkpt>
      <trkpt lat="48.61211" lon="-2.96832">
        <ele>150</ele>
        <time>2020-06-24T08:59:57Z</time>
      </trkpt>
      <trkpt lat="48.61215" lon="-2.96838">
        <ele>148</ele>
        <time>2020-06-24T09:00:03Z</time>
      </trkpt>
      <trkpt lat="48.61219" lon="-2.96841">
        <ele>148</ele>
        <time>2020-06-24T09:00:06Z</time>
      </trkpt>
      <trkpt lat="48.61225" lon="-2.96846">
        <ele>150</ele>
        <time>2020-06-24T09:00:09Z</time>
      </trkpt>
      <trkpt lat="48.61229" lon="-2.96848">
        <ele>152</ele>
        <time>2020-06-24T09:00:11Z</time>
      </trkpt>
      <trkpt lat="48.61234" lon="-2.96847">
        <ele>152</ele>
        <time>2020-06-24T09:00:15Z</time>
      </trkpt>
      <trkpt lat="48.6124" lon="-2.96847">
        <ele>156</ele>
        <time>2020-06-24T09:00:18Z</time>
      </trkpt>
      <trkpt lat="48.61244" lon="-2.96849">
        <ele>155</ele>
        <time>2020-06-24T09:00:20Z</time>
      </trkpt>
      <trkpt lat="48.61249" lon="-2.96852">
        <ele>155</ele>
        <time>2020-06-24T09:00:22Z</time>
      </trkpt>
      <trkpt lat="48.61254" lon="-2.96855">
        <ele>155</ele>
        <time>2020-06-24T09:00:25Z</time>
      </trkpt>
      <trkpt lat="48.61254" lon="-2.96862">
        <ele>154</ele>
        <time>2020-06-24T09:00:32Z</time>
      </trkpt>
      <trkpt lat="48.61258" lon="-2.96864">
        <ele>158</ele>
        <time>2020-06-24T09:00:35Z</time>
      </trkpt>
      <trkpt lat="48.61264" lon="-2.96866">
        <ele>157</ele>
        <time>2020-06-24T09:00:39Z</time>
      </trkpt>
      <trkpt lat="48.61268" lon="-2.96871">
        <ele>155</ele>
        <time>2020-06-24T09:00:44Z</time>
      </trkpt>
      <trkpt lat="48.61272" lon="-2.96875">
        <ele>155</ele>
        <time>2020-06-24T09:00:50Z</time>
      </trkpt>
      <trkpt lat="48.61277" lon="-2.96879">
        <ele>155</ele>
        <time>2020-06-24T09:00:53Z</time>
      </trkpt>
      <trkpt lat="48.61282" lon="-2.96881">
        <ele>153</ele>
        <time>2020-06-24T09:00:57Z</time>
      </trkpt>
      <trkpt lat="48.61288" lon="-2.96882">
        <ele>153</ele>
        <time>2020-06-24T09:01:00Z</time>
      </trkpt>
      <trkpt lat="48.61293" lon="-2.96884">
        <ele>154</ele>
        <time>2020-06-24T09:01:02Z</time>
      </trkpt>
      <trkpt lat="48.61299" lon="-2.96886">
        <ele>154</ele>
        <time>2020-06-24T09:01:05Z</time>
      </trkpt>
      <trkpt lat="48.61304" lon="-2.96887">
        <ele>149</ele>
        <time>2020-06-24T09:01:10Z</time>
      </trkpt>
      <trkpt lat="48.61308" lon="-2.96891">
        <ele>153</ele>
        <time>2020-06-24T09:01:18Z</time>
      </trkpt>
      <trkpt lat="48.61314" lon="-2.96891">
        <ele>156</ele>
        <time>2020-06-24T09:01:23Z</time>
      </trkpt>
      <trkpt lat="48.61319" lon="-2.96892">
        <ele>157</ele>
        <time>2020-06-24T09:01:26Z</time>
      </trkpt>
      <trkpt lat="48.61324" lon="-2.96894">
        <ele>158</ele>
        <time>2020-06-24T09:01:29Z</time>
      </trkpt>
      <trkpt lat="48.61329" lon="-2.96896">
        <ele>157</ele>
        <time>2020-06-24T09:01:32Z</time>
      </trkpt>
      <trkpt lat="48.61334" lon="-2.96898">
        <ele>154</ele>
        <time>2020-06-24T09:01:36Z</time>
      </trkpt>
      <trkpt lat="48.6134" lon="-2.96899">
        <ele>153</ele>
        <time>2020-06-24T09:01:39Z</time>
      </trkpt>
      <trkpt lat="48.61345" lon="-2.96899">
        <ele>154</ele>
        <time>2020-06-24T09:01:42Z</time>
      </trkpt>
      <trkpt lat="48.6135" lon="-2.96903">
        <ele>149</ele>
        <time>2020-06-24T09:01:49Z</time>
      </trkpt>
      <trkpt lat="48.61354" lon="-2.96907">
        <ele>147</ele>
        <time>2020-06-24T09:01:54Z</time>
      </trkpt>
      <trkpt lat="48.61358" lon="-2.96903">
        <ele>148</ele>
        <time>2020-06-24T09:01:57Z</time>
      </trkpt>
      <trkpt lat="48.6136" lon="-2.96896">
        <ele>149</ele>
        <time>2020-06-24T09:02:00Z</time>
      </trkpt>
      <trkpt lat="48.61363" lon="-2.9689">
        <ele>150</ele>
        <time>2020-06-24T09:02:06Z</time>
      </trkpt>
      <trkpt lat="48.61367" lon="-2.96887">
        <ele>153</ele>
        <time>2020-06-24T09:02:10Z</time>
      </trkpt>
      <trkpt lat="48.61372" lon="-2.96887">
        <ele>153</ele>
        <time>2020-06-24T09:02:17Z</time>
      </trkpt>
      <trkpt lat="48.61378" lon="-2.96887">
        <ele>154</ele>
        <time>2020-06-24T09:02:21Z</time>
      </trkpt>
      <trkpt lat="48.61382" lon="-2.96887">
        <ele>153</ele>
        <time>2020-06-24T09:02:24Z</time>
      </trkpt>
      <trkpt lat="48.61386" lon="-2.96891">
        <ele>151</ele>
        <time>2020-06-24T09:02:30Z</time>
      </trkpt>
      <trkpt lat="48.61384" lon="-2.96896">
        <ele>149</ele>
        <time>2020-06-24T09:02:51Z</time>
      </trkpt>
      <trkpt lat="48.61384" lon="-2.96897">
        <ele>150</ele>
        <time>2020-06-24T09:02:53Z</time>
      </trkpt>
      <trkpt lat="48.61386" lon="-2.96896">
        <ele>148</ele>
        <time>2020-06-24T09:03:21Z</time>
      </trkpt>
      <trkpt lat="48.61387" lon="-2.96896">
        <ele>148</ele>
        <time>2020-06-24T09:03:23Z</time>
      </trkpt>
      <trkpt lat="48.61391" lon="-2.96896">
        <ele>151</ele>
        <time>2020-06-24T09:03:33Z</time>
      </trkpt>
      <trkpt lat="48.61395" lon="-2.96892">
        <ele>152</ele>
        <time>2020-06-24T09:03:37Z</time>
      </trkpt>
    </trkseg>
  </trk>
</gpx>